<?xml version='1.0' encoding='UTF-8'?>
<gpx version="1.1" creator="https://www.komoot.de" xmlns="http://www.topografix.com/GPX/1/1" xmlns:xsi="http://www.w3.org/2001/XMLSchema-instance" xsi:schemaLocation="http://www.topografix.com/GPX/1/1 http://www.topografix.com/GPX/1/1/gpx.xsd">
  <metadata>
    <name>Gravel-Tour-Süd-Ost</name>
    <author>
      <link href="https://www.komoot.de">
        <text>komoot</text>
        <type>text/html</type>
      </link>
    </author>
  </metadata>
  <trk>
    <name>Gravel-Tour-Süd-Ost</name>
    <trkseg>
      <trkpt lat="51.618194" lon="7.331498">
        <ele>68.023260</ele>
        <time>2025-08-12T11:41:24.663Z</time>
      </trkpt>
      <trkpt lat="51.618111" lon="7.331634">
        <ele>68.023260</ele>
        <time>2025-08-12T11:41:27.593Z</time>
      </trkpt>
      <trkpt lat="51.617885" lon="7.332065">
        <ele>68.023260</ele>
        <time>2025-08-12T11:41:36.759Z</time>
      </trkpt>
      <trkpt lat="51.617784" lon="7.332230">
        <ele>68.023260</ele>
        <time>2025-08-12T11:41:40.637Z</time>
      </trkpt>
      <trkpt lat="51.617420" lon="7.332657">
        <ele>68.035237</ele>
        <time>2025-08-12T11:41:52.283Z</time>
      </trkpt>
      <trkpt lat="51.617398" lon="7.332630">
        <ele>68.037263</ele>
        <time>2025-08-12T11:41:53.136Z</time>
      </trkpt>
      <trkpt lat="51.617120" lon="7.332294">
        <ele>68.062720</ele>
        <time>2025-08-12T11:42:03.076Z</time>
      </trkpt>
      <trkpt lat="51.616871" lon="7.331971">
        <ele>68.086136</ele>
        <time>2025-08-12T11:42:12.856Z</time>
      </trkpt>
      <trkpt lat="51.616215" lon="7.333321">
        <ele>68.046220</ele>
        <time>2025-08-12T11:42:32.110Z</time>
      </trkpt>
      <trkpt lat="51.616089" lon="7.333594">
        <ele>67.861352</ele>
        <time>2025-08-12T11:42:35.666Z</time>
      </trkpt>
      <trkpt lat="51.616038" lon="7.333648">
        <ele>67.807930</ele>
        <time>2025-08-12T11:42:36.690Z</time>
      </trkpt>
      <trkpt lat="51.615968" lon="7.333609">
        <ele>67.743099</ele>
        <time>2025-08-12T11:42:37.925Z</time>
      </trkpt>
      <trkpt lat="51.615966" lon="7.333604">
        <ele>67.739867</ele>
        <time>2025-08-12T11:42:37.989Z</time>
      </trkpt>
      <trkpt lat="51.615945" lon="7.333560">
        <ele>67.709706</ele>
        <time>2025-08-12T11:42:38.565Z</time>
      </trkpt>
      <trkpt lat="51.615942" lon="7.333463">
        <ele>67.656923</ele>
        <time>2025-08-12T11:42:39.578Z</time>
      </trkpt>
      <trkpt lat="51.615995" lon="7.333035">
        <ele>67.419733</ele>
        <time>2025-08-12T11:42:44.245Z</time>
      </trkpt>
      <trkpt lat="51.616059" lon="7.332475">
        <ele>67.110273</ele>
        <time>2025-08-12T11:42:50.595Z</time>
      </trkpt>
      <trkpt lat="51.616040" lon="7.332451">
        <ele>67.089138</ele>
        <time>2025-08-12T11:42:51.057Z</time>
      </trkpt>
      <trkpt lat="51.615696" lon="7.332344">
        <ele>66.782482</ele>
        <time>2025-08-12T11:43:01.110Z</time>
      </trkpt>
      <trkpt lat="51.615655" lon="7.332430">
        <ele>66.723555</ele>
        <time>2025-08-12T11:43:02.387Z</time>
      </trkpt>
      <trkpt lat="51.615653" lon="7.332533">
        <ele>66.667549</ele>
        <time>2025-08-12T11:43:03.615Z</time>
      </trkpt>
      <trkpt lat="51.615569" lon="7.333212">
        <ele>66.693699</ele>
        <time>2025-08-12T11:43:11.906Z</time>
      </trkpt>
      <trkpt lat="51.615140" lon="7.336693">
        <ele>67.365618</ele>
        <time>2025-08-12T11:44:00.147Z</time>
      </trkpt>
      <trkpt lat="51.615019" lon="7.337907">
        <ele>67.542334</ele>
        <time>2025-08-12T11:44:15.483Z</time>
      </trkpt>
      <trkpt lat="51.614949" lon="7.338849">
        <ele>67.637179</ele>
        <time>2025-08-12T11:44:26.962Z</time>
      </trkpt>
      <trkpt lat="51.614620" lon="7.344537">
        <ele>68.039003</ele>
        <time>2025-08-12T11:45:38.971Z</time>
      </trkpt>
      <trkpt lat="51.614307" lon="7.349937">
        <ele>68.793359</ele>
        <time>2025-08-12T11:46:48.644Z</time>
      </trkpt>
      <trkpt lat="51.614199" lon="7.352164">
        <ele>68.849029</ele>
        <time>2025-08-12T11:47:17.395Z</time>
      </trkpt>
      <trkpt lat="51.614043" lon="7.354562">
        <ele>68.512238</ele>
        <time>2025-08-12T11:47:45.381Z</time>
      </trkpt>
      <trkpt lat="51.613970" lon="7.356038">
        <ele>68.362378</ele>
        <time>2025-08-12T11:48:03.042Z</time>
      </trkpt>
      <trkpt lat="51.613916" lon="7.358963">
        <ele>68.977746</ele>
        <time>2025-08-12T11:48:42.883Z</time>
      </trkpt>
      <trkpt lat="51.613824" lon="7.363061">
        <ele>69.138605</ele>
        <time>2025-08-12T11:49:34.673Z</time>
      </trkpt>
      <trkpt lat="51.613656" lon="7.368491">
        <ele>67.271401</ele>
        <time>2025-08-12T11:50:36.916Z</time>
      </trkpt>
      <trkpt lat="51.613617" lon="7.369143">
        <ele>66.992002</ele>
        <time>2025-08-12T11:50:44.117Z</time>
      </trkpt>
      <trkpt lat="51.613516" lon="7.370093">
        <ele>66.580881</ele>
        <time>2025-08-12T11:50:55.009Z</time>
      </trkpt>
      <trkpt lat="51.613451" lon="7.370504">
        <ele>66.626137</ele>
        <time>2025-08-12T11:50:59.925Z</time>
      </trkpt>
      <trkpt lat="51.613194" lon="7.372006">
        <ele>66.907881</ele>
        <time>2025-08-12T11:51:19.956Z</time>
      </trkpt>
      <trkpt lat="51.613063" lon="7.372535">
        <ele>67.010872</ele>
        <time>2025-08-12T11:51:28.211Z</time>
      </trkpt>
      <trkpt lat="51.612285" lon="7.375480">
        <ele>68.488450</ele>
        <time>2025-08-12T11:52:15.288Z</time>
      </trkpt>
      <trkpt lat="51.611368" lon="7.378850">
        <ele>67.953950</ele>
        <time>2025-08-12T11:52:59.247Z</time>
      </trkpt>
      <trkpt lat="51.611215" lon="7.379303">
        <ele>67.718076</ele>
        <time>2025-08-12T11:53:04.915Z</time>
      </trkpt>
      <trkpt lat="51.610932" lon="7.380004">
        <ele>67.335624</ele>
        <time>2025-08-12T11:53:14.080Z</time>
      </trkpt>
      <trkpt lat="51.610620" lon="7.380632">
        <ele>66.967747</ele>
        <time>2025-08-12T11:53:23.036Z</time>
      </trkpt>
      <trkpt lat="51.610532" lon="7.380779">
        <ele>66.933668</ele>
        <time>2025-08-12T11:53:25.369Z</time>
      </trkpt>
      <trkpt lat="51.610301" lon="7.381162">
        <ele>66.895124</ele>
        <time>2025-08-12T11:53:31.591Z</time>
      </trkpt>
      <trkpt lat="51.609992" lon="7.381608">
        <ele>66.846885</ele>
        <time>2025-08-12T11:53:39.712Z</time>
      </trkpt>
      <trkpt lat="51.609411" lon="7.382275">
        <ele>66.763938</ele>
        <time>2025-08-12T11:53:54.509Z</time>
      </trkpt>
      <trkpt lat="51.609079" lon="7.382591">
        <ele>66.722124</ele>
        <time>2025-08-12T11:54:02.431Z</time>
      </trkpt>
      <trkpt lat="51.608733" lon="7.382848">
        <ele>66.685890</ele>
        <time>2025-08-12T11:54:10.058Z</time>
      </trkpt>
      <trkpt lat="51.608452" lon="7.383038">
        <ele>66.656909</ele>
        <time>2025-08-12T11:54:16.030Z</time>
      </trkpt>
      <trkpt lat="51.608029" lon="7.383261">
        <ele>66.614584</ele>
        <time>2025-08-12T11:54:24.563Z</time>
      </trkpt>
      <trkpt lat="51.607588" lon="7.383436">
        <ele>66.571394</ele>
        <time>2025-08-12T11:54:33.157Z</time>
      </trkpt>
      <trkpt lat="51.607152" lon="7.383545">
        <ele>66.724723</ele>
        <time>2025-08-12T11:54:41.504Z</time>
      </trkpt>
      <trkpt lat="51.606141" lon="7.383650">
        <ele>67.162559</ele>
        <time>2025-08-12T11:55:03.288Z</time>
      </trkpt>
      <trkpt lat="51.605203" lon="7.383627">
        <ele>67.634928</ele>
        <time>2025-08-12T11:55:26.339Z</time>
      </trkpt>
      <trkpt lat="51.604996" lon="7.383605">
        <ele>67.751138</ele>
        <time>2025-08-12T11:55:31.422Z</time>
      </trkpt>
      <trkpt lat="51.604946" lon="7.383600">
        <ele>67.779202</ele>
        <time>2025-08-12T11:55:32.640Z</time>
      </trkpt>
      <trkpt lat="51.604795" lon="7.383583">
        <ele>67.863996</ele>
        <time>2025-08-12T11:55:36.236Z</time>
      </trkpt>
      <trkpt lat="51.604697" lon="7.383476">
        <ele>67.930326</ele>
        <time>2025-08-12T11:55:38.967Z</time>
      </trkpt>
      <trkpt lat="51.604584" lon="7.383450">
        <ele>67.994270</ele>
        <time>2025-08-12T11:55:41.487Z</time>
      </trkpt>
      <trkpt lat="51.604496" lon="7.383512">
        <ele>68.048080</ele>
        <time>2025-08-12T11:55:43.560Z</time>
      </trkpt>
      <trkpt lat="51.599219" lon="7.382695">
        <ele>66.856340</ele>
        <time>2025-08-12T11:57:23.828Z</time>
      </trkpt>
      <trkpt lat="51.599033" lon="7.382421">
        <ele>66.833527</ele>
        <time>2025-08-12T11:57:29.261Z</time>
      </trkpt>
      <trkpt lat="51.598917" lon="7.382512">
        <ele>66.821850</ele>
        <time>2025-08-12T11:57:31.752Z</time>
      </trkpt>
      <trkpt lat="51.598791" lon="7.382534">
        <ele>66.810382</ele>
        <time>2025-08-12T11:57:34.230Z</time>
      </trkpt>
      <trkpt lat="51.598307" lon="7.382486">
        <ele>66.649568</ele>
        <time>2025-08-12T11:57:43.793Z</time>
      </trkpt>
      <trkpt lat="51.597991" lon="7.382493">
        <ele>66.518334</ele>
        <time>2025-08-12T11:57:49.892Z</time>
      </trkpt>
      <trkpt lat="51.597317" lon="7.382682">
        <ele>66.234234</ele>
        <time>2025-08-12T11:58:01.510Z</time>
      </trkpt>
      <trkpt lat="51.596933" lon="7.382836">
        <ele>66.069901</ele>
        <time>2025-08-12T11:58:07.732Z</time>
      </trkpt>
      <trkpt lat="51.596638" lon="7.383000">
        <ele>65.493366</ele>
        <time>2025-08-12T11:58:12.382Z</time>
      </trkpt>
      <trkpt lat="51.596388" lon="7.382200">
        <ele>64.339528</ele>
        <time>2025-08-12T11:58:21.396Z</time>
      </trkpt>
      <trkpt lat="51.595758" lon="7.382102">
        <ele>63.026732</ele>
        <time>2025-08-12T11:58:31.515Z</time>
      </trkpt>
      <trkpt lat="51.595488" lon="7.381932">
        <ele>62.425401</ele>
        <time>2025-08-12T11:58:36.232Z</time>
      </trkpt>
      <trkpt lat="51.595031" lon="7.381766">
        <ele>61.869434</ele>
        <time>2025-08-12T11:58:44.070Z</time>
      </trkpt>
      <trkpt lat="51.594930" lon="7.381665">
        <ele>61.740959</ele>
        <time>2025-08-12T11:58:46.137Z</time>
      </trkpt>
      <trkpt lat="51.594616" lon="7.381017">
        <ele>61.189321</ele>
        <time>2025-08-12T11:58:55.356Z</time>
      </trkpt>
      <trkpt lat="51.593862" lon="7.379808">
        <ele>60.255978</ele>
        <time>2025-08-12T11:59:15.040Z</time>
      </trkpt>
      <trkpt lat="51.593513" lon="7.379159">
        <ele>60.048258</ele>
        <time>2025-08-12T11:59:24.953Z</time>
      </trkpt>
      <trkpt lat="51.593345" lon="7.378785">
        <ele>59.936572</ele>
        <time>2025-08-12T11:59:30.278Z</time>
      </trkpt>
      <trkpt lat="51.593174" lon="7.378525">
        <ele>59.844944</ele>
        <time>2025-08-12T11:59:34.666Z</time>
      </trkpt>
      <trkpt lat="51.592964" lon="7.378047">
        <ele>59.703268</ele>
        <time>2025-08-12T11:59:41.644Z</time>
      </trkpt>
      <trkpt lat="51.592802" lon="7.377848">
        <ele>59.771555</ele>
        <time>2025-08-12T11:59:47.775Z</time>
      </trkpt>
      <trkpt lat="51.592470" lon="7.377627">
        <ele>60.017481</ele>
        <time>2025-08-12T11:59:59.206Z</time>
      </trkpt>
      <trkpt lat="51.592427" lon="7.377479">
        <ele>60.086962</ele>
        <time>2025-08-12T12:00:02.568Z</time>
      </trkpt>
      <trkpt lat="51.592427" lon="7.377341">
        <ele>60.145648</ele>
        <time>2025-08-12T12:00:05.461Z</time>
      </trkpt>
      <trkpt lat="51.592937" lon="7.376079">
        <ele>60.785876</ele>
        <time>2025-08-12T12:00:36.770Z</time>
      </trkpt>
      <trkpt lat="51.593050" lon="7.375801">
        <ele>60.915971</ele>
        <time>2025-08-12T12:00:43.674Z</time>
      </trkpt>
      <trkpt lat="51.593084" lon="7.375628">
        <ele>60.946507</ele>
        <time>2025-08-12T12:00:47.427Z</time>
      </trkpt>
      <trkpt lat="51.593058" lon="7.375420">
        <ele>60.982212</ele>
        <time>2025-08-12T12:00:51.757Z</time>
      </trkpt>
      <trkpt lat="51.592621" lon="7.374345">
        <ele>61.198413</ele>
        <time>2025-08-12T12:01:17.037Z</time>
      </trkpt>
      <trkpt lat="51.592340" lon="7.373480">
        <ele>61.362685</ele>
        <time>2025-08-12T12:01:34.936Z</time>
      </trkpt>
      <trkpt lat="51.592210" lon="7.372355">
        <ele>61.149493</ele>
        <time>2025-08-12T12:01:55.311Z</time>
      </trkpt>
      <trkpt lat="51.592286" lon="7.370657">
        <ele>60.706576</ele>
        <time>2025-08-12T12:02:25.311Z</time>
      </trkpt>
      <trkpt lat="51.592425" lon="7.370062">
        <ele>60.701994</ele>
        <time>2025-08-12T12:02:36.780Z</time>
      </trkpt>
      <trkpt lat="51.591894" lon="7.370211">
        <ele>60.834066</ele>
        <time>2025-08-12T12:02:47.565Z</time>
      </trkpt>
      <trkpt lat="51.590160" lon="7.369987">
        <ele>61.251718</ele>
        <time>2025-08-12T12:03:25.959Z</time>
      </trkpt>
      <trkpt lat="51.589912" lon="7.370003">
        <ele>61.309580</ele>
        <time>2025-08-12T12:03:31.295Z</time>
      </trkpt>
      <trkpt lat="51.590307" lon="7.363132">
        <ele>61.132234</ele>
        <time>2025-08-12T12:05:37.222Z</time>
      </trkpt>
      <trkpt lat="51.590096" lon="7.361593">
        <ele>61.182089</ele>
        <time>2025-08-12T12:06:06.072Z</time>
      </trkpt>
      <trkpt lat="51.590017" lon="7.361311">
        <ele>61.196564</ele>
        <time>2025-08-12T12:06:11.800Z</time>
      </trkpt>
      <trkpt lat="51.589844" lon="7.361074">
        <ele>61.213675</ele>
        <time>2025-08-12T12:06:18.636Z</time>
      </trkpt>
      <trkpt lat="51.589258" lon="7.360469">
        <ele>61.273334</ele>
        <time>2025-08-12T12:06:39.962Z</time>
      </trkpt>
      <trkpt lat="51.588641" lon="7.359359">
        <ele>61.385450</ele>
        <time>2025-08-12T12:07:08.503Z</time>
      </trkpt>
      <trkpt lat="51.588571" lon="7.359140">
        <ele>61.403989</ele>
        <time>2025-08-12T12:07:13.130Z</time>
      </trkpt>
      <trkpt lat="51.588552" lon="7.358803">
        <ele>61.429461</ele>
        <time>2025-08-12T12:07:19.421Z</time>
      </trkpt>
      <trkpt lat="51.588680" lon="7.358056">
        <ele>61.417634</ele>
        <time>2025-08-12T12:07:33.527Z</time>
      </trkpt>
      <trkpt lat="51.588390" lon="7.358046">
        <ele>61.295037</ele>
        <time>2025-08-12T12:07:38.508Z</time>
      </trkpt>
      <trkpt lat="51.587761" lon="7.358018">
        <ele>61.029087</ele>
        <time>2025-08-12T12:07:49.182Z</time>
      </trkpt>
      <trkpt lat="51.586512" lon="7.357962">
        <ele>60.385488</ele>
        <time>2025-08-12T12:08:10.652Z</time>
      </trkpt>
      <trkpt lat="51.586506" lon="7.357795">
        <ele>60.317510</ele>
        <time>2025-08-12T12:08:12.432Z</time>
      </trkpt>
      <trkpt lat="51.587491" lon="7.357640">
        <ele>59.670204</ele>
        <time>2025-08-12T12:08:30.690Z</time>
      </trkpt>
      <trkpt lat="51.587570" lon="7.357524">
        <ele>59.600262</ele>
        <time>2025-08-12T12:08:32.637Z</time>
      </trkpt>
      <trkpt lat="51.588164" lon="7.355082">
        <ele>58.422706</ele>
        <time>2025-08-12T12:09:02.662Z</time>
      </trkpt>
      <trkpt lat="51.588160" lon="7.354944">
        <ele>58.360293</ele>
        <time>2025-08-12T12:09:04.204Z</time>
      </trkpt>
      <trkpt lat="51.587743" lon="7.353231">
        <ele>57.644690</ele>
        <time>2025-08-12T12:09:24.775Z</time>
      </trkpt>
      <trkpt lat="51.587651" lon="7.353013">
        <ele>57.545329</ele>
        <time>2025-08-12T12:09:27.769Z</time>
      </trkpt>
      <trkpt lat="51.587570" lon="7.352974">
        <ele>57.494023</ele>
        <time>2025-08-12T12:09:29.312Z</time>
      </trkpt>
      <trkpt lat="51.587470" lon="7.352982">
        <ele>57.433264</ele>
        <time>2025-08-12T12:09:31.155Z</time>
      </trkpt>
      <trkpt lat="51.587365" lon="7.353059">
        <ele>57.363244</ele>
        <time>2025-08-12T12:09:33.286Z</time>
      </trkpt>
      <trkpt lat="51.586772" lon="7.353962">
        <ele>57.387457</ele>
        <time>2025-08-12T12:09:49.187Z</time>
      </trkpt>
      <trkpt lat="51.586618" lon="7.354198">
        <ele>57.508259</ele>
        <time>2025-08-12T12:09:53.917Z</time>
      </trkpt>
      <trkpt lat="51.586383" lon="7.354572">
        <ele>57.696009</ele>
        <time>2025-08-12T12:10:01.559Z</time>
      </trkpt>
      <trkpt lat="51.586199" lon="7.354881">
        <ele>57.847081</ele>
        <time>2025-08-12T12:10:07.802Z</time>
      </trkpt>
      <trkpt lat="51.586110" lon="7.355586">
        <ele>58.101015</ele>
        <time>2025-08-12T12:10:18.508Z</time>
      </trkpt>
      <trkpt lat="51.586219" lon="7.355807">
        <ele>58.157034</ele>
        <time>2025-08-12T12:10:24.396Z</time>
      </trkpt>
      <trkpt lat="51.586268" lon="7.356025">
        <ele>58.155139</ele>
        <time>2025-08-12T12:10:29.225Z</time>
      </trkpt>
      <trkpt lat="51.586283" lon="7.356257">
        <ele>58.153232</ele>
        <time>2025-08-12T12:10:34.046Z</time>
      </trkpt>
      <trkpt lat="51.586245" lon="7.356470">
        <ele>58.151421</ele>
        <time>2025-08-12T12:10:38.512Z</time>
      </trkpt>
      <trkpt lat="51.586140" lon="7.356553">
        <ele>58.149882</ele>
        <time>2025-08-12T12:10:42.222Z</time>
      </trkpt>
      <trkpt lat="51.585876" lon="7.356761">
        <ele>58.146015</ele>
        <time>2025-08-12T12:10:51.215Z</time>
      </trkpt>
      <trkpt lat="51.585738" lon="7.356967">
        <ele>58.143538</ele>
        <time>2025-08-12T12:10:56.715Z</time>
      </trkpt>
      <trkpt lat="51.585592" lon="7.356982">
        <ele>58.141613</ele>
        <time>2025-08-12T12:10:59.473Z</time>
      </trkpt>
      <trkpt lat="51.585402" lon="7.356904">
        <ele>58.139034</ele>
        <time>2025-08-12T12:11:03.080Z</time>
      </trkpt>
      <trkpt lat="51.585388" lon="7.356901">
        <ele>58.138848</ele>
        <time>2025-08-12T12:11:03.336Z</time>
      </trkpt>
      <trkpt lat="51.585119" lon="7.356846">
        <ele>58.135280</ele>
        <time>2025-08-12T12:11:08.136Z</time>
      </trkpt>
      <trkpt lat="51.584866" lon="7.356736">
        <ele>58.035722</ele>
        <time>2025-08-12T12:11:12.758Z</time>
      </trkpt>
      <trkpt lat="51.584784" lon="7.356702">
        <ele>57.992191</ele>
        <time>2025-08-12T12:11:14.252Z</time>
      </trkpt>
      <trkpt lat="51.584505" lon="7.356587">
        <ele>57.844133</ele>
        <time>2025-08-12T12:11:19.404Z</time>
      </trkpt>
      <trkpt lat="51.584378" lon="7.356563">
        <ele>57.778397</ele>
        <time>2025-08-12T12:11:21.712Z</time>
      </trkpt>
      <trkpt lat="51.584211" lon="7.356161">
        <ele>57.623931</ele>
        <time>2025-08-12T12:11:27.221Z</time>
      </trkpt>
      <trkpt lat="51.583535" lon="7.354343">
        <ele>57.284177</ele>
        <time>2025-08-12T12:12:06.016Z</time>
      </trkpt>
      <trkpt lat="51.583503" lon="7.354257">
        <ele>57.293258</ele>
        <time>2025-08-12T12:12:07.332Z</time>
      </trkpt>
      <trkpt lat="51.584138" lon="7.354117">
        <ele>57.386708</ele>
        <time>2025-08-12T12:12:20.408Z</time>
      </trkpt>
      <trkpt lat="51.584500" lon="7.354037">
        <ele>57.439985</ele>
        <time>2025-08-12T12:12:27.716Z</time>
      </trkpt>
      <trkpt lat="51.585318" lon="7.353857">
        <ele>57.877842</ele>
        <time>2025-08-12T12:12:45.631Z</time>
      </trkpt>
      <trkpt lat="51.585813" lon="7.353259">
        <ele>58.292185</ele>
        <time>2025-08-12T12:12:59.819Z</time>
      </trkpt>
      <trkpt lat="51.585814" lon="7.353154">
        <ele>58.335865</ele>
        <time>2025-08-12T12:13:02.018Z</time>
      </trkpt>
      <trkpt lat="51.585777" lon="7.353007">
        <ele>58.401837</ele>
        <time>2025-08-12T12:13:05.331Z</time>
      </trkpt>
      <trkpt lat="51.585686" lon="7.352868">
        <ele>58.485825</ele>
        <time>2025-08-12T12:13:09.522Z</time>
      </trkpt>
      <trkpt lat="51.585517" lon="7.352823">
        <ele>58.600498</ele>
        <time>2025-08-12T12:13:15.266Z</time>
      </trkpt>
      <trkpt lat="51.585436" lon="7.352861">
        <ele>58.656980</ele>
        <time>2025-08-12T12:13:18.111Z</time>
      </trkpt>
      <trkpt lat="51.585387" lon="7.352941">
        <ele>58.692625</ele>
        <time>2025-08-12T12:13:20.396Z</time>
      </trkpt>
      <trkpt lat="51.585332" lon="7.352995">
        <ele>58.718476</ele>
        <time>2025-08-12T12:13:21.784Z</time>
      </trkpt>
      <trkpt lat="51.585240" lon="7.353075">
        <ele>58.760434</ele>
        <time>2025-08-12T12:13:23.960Z</time>
      </trkpt>
      <trkpt lat="51.585189" lon="7.353070">
        <ele>58.780935</ele>
        <time>2025-08-12T12:13:25.058Z</time>
      </trkpt>
      <trkpt lat="51.585054" lon="7.352699">
        <ele>58.888124</ele>
        <time>2025-08-12T12:13:30.490Z</time>
      </trkpt>
      <trkpt lat="51.584955" lon="7.352420">
        <ele>58.968226</ele>
        <time>2025-08-12T12:13:34.358Z</time>
      </trkpt>
      <trkpt lat="51.584816" lon="7.352025">
        <ele>59.081402</ele>
        <time>2025-08-12T12:13:39.550Z</time>
      </trkpt>
      <trkpt lat="51.584279" lon="7.352513">
        <ele>59.328847</ele>
        <time>2025-08-12T12:13:50.977Z</time>
      </trkpt>
      <trkpt lat="51.584163" lon="7.352603">
        <ele>59.380517</ele>
        <time>2025-08-12T12:13:53.298Z</time>
      </trkpt>
      <trkpt lat="51.583821" lon="7.352879">
        <ele>59.602076</ele>
        <time>2025-08-12T12:14:00.273Z</time>
      </trkpt>
      <trkpt lat="51.583717" lon="7.352939">
        <ele>59.668539</ele>
        <time>2025-08-12T12:14:02.358Z</time>
      </trkpt>
      <trkpt lat="51.583654" lon="7.352882">
        <ele>59.712017</ele>
        <time>2025-08-12T12:14:03.726Z</time>
      </trkpt>
      <trkpt lat="51.583333" lon="7.351812">
        <ele>60.156165</ele>
        <time>2025-08-12T12:14:18.562Z</time>
      </trkpt>
      <trkpt lat="51.583038" lon="7.351004">
        <ele>60.510324</ele>
        <time>2025-08-12T12:14:31.230Z</time>
      </trkpt>
      <trkpt lat="51.582679" lon="7.350157">
        <ele>60.948742</ele>
        <time>2025-08-12T12:14:45.417Z</time>
      </trkpt>
      <trkpt lat="51.582027" lon="7.348726">
        <ele>61.707524</ele>
        <time>2025-08-12T12:15:07.903Z</time>
      </trkpt>
      <trkpt lat="51.581922" lon="7.348859">
        <ele>61.689715</ele>
        <time>2025-08-12T12:15:10.290Z</time>
      </trkpt>
      <trkpt lat="51.581865" lon="7.348927">
        <ele>61.673154</ele>
        <time>2025-08-12T12:15:11.553Z</time>
      </trkpt>
      <trkpt lat="51.581140" lon="7.349906">
        <ele>61.452262</ele>
        <time>2025-08-12T12:15:27.743Z</time>
      </trkpt>
      <trkpt lat="51.580870" lon="7.349193">
        <ele>61.331164</ele>
        <time>2025-08-12T12:15:37.413Z</time>
      </trkpt>
      <trkpt lat="51.580358" lon="7.347799">
        <ele>61.051268</ele>
        <time>2025-08-12T12:15:56.530Z</time>
      </trkpt>
      <trkpt lat="51.580136" lon="7.347194">
        <ele>60.926575</ele>
        <time>2025-08-12T12:16:04.944Z</time>
      </trkpt>
      <trkpt lat="51.579835" lon="7.347274">
        <ele>60.839447</ele>
        <time>2025-08-12T12:16:10.824Z</time>
      </trkpt>
      <trkpt lat="51.579507" lon="7.347062">
        <ele>60.765273</ele>
        <time>2025-08-12T12:16:17.670Z</time>
      </trkpt>
      <trkpt lat="51.579385" lon="7.347047">
        <ele>60.750874</ele>
        <time>2025-08-12T12:16:20.031Z</time>
      </trkpt>
      <trkpt lat="51.579237" lon="7.347090">
        <ele>60.733176</ele>
        <time>2025-08-12T12:16:22.953Z</time>
      </trkpt>
      <trkpt lat="51.578217" lon="7.346992">
        <ele>60.612930</ele>
        <time>2025-08-12T12:16:42.944Z</time>
      </trkpt>
      <trkpt lat="51.577699" lon="7.346817">
        <ele>60.551327</ele>
        <time>2025-08-12T12:16:53.313Z</time>
      </trkpt>
      <trkpt lat="51.577644" lon="7.346770">
        <ele>60.544229</ele>
        <time>2025-08-12T12:16:54.522Z</time>
      </trkpt>
      <trkpt lat="51.577454" lon="7.346333">
        <ele>60.506453</ele>
        <time>2025-08-12T12:17:00.929Z</time>
      </trkpt>
      <trkpt lat="51.577163" lon="7.346118">
        <ele>60.469958</ele>
        <time>2025-08-12T12:17:07.060Z</time>
      </trkpt>
      <trkpt lat="51.577065" lon="7.345985">
        <ele>60.455346</ele>
        <time>2025-08-12T12:17:09.498Z</time>
      </trkpt>
      <trkpt lat="51.576959" lon="7.345611">
        <ele>60.426230</ele>
        <time>2025-08-12T12:17:14.343Z</time>
      </trkpt>
      <trkpt lat="51.576912" lon="7.345327">
        <ele>60.405413</ele>
        <time>2025-08-12T12:17:17.877Z</time>
      </trkpt>
      <trkpt lat="51.576917" lon="7.345026">
        <ele>60.384085</ele>
        <time>2025-08-12T12:17:21.581Z</time>
      </trkpt>
      <trkpt lat="51.576800" lon="7.344633">
        <ele>60.435565</ele>
        <time>2025-08-12T12:17:27.136Z</time>
      </trkpt>
      <trkpt lat="51.576730" lon="7.344125">
        <ele>60.613121</ele>
        <time>2025-08-12T12:17:34.129Z</time>
      </trkpt>
      <trkpt lat="51.576369" lon="7.343835">
        <ele>60.834667</ele>
        <time>2025-08-12T12:17:47.179Z</time>
      </trkpt>
      <trkpt lat="51.576231" lon="7.343681">
        <ele>60.926879</ele>
        <time>2025-08-12T12:17:52.513Z</time>
      </trkpt>
      <trkpt lat="51.575664" lon="7.343181">
        <ele>61.281893</ele>
        <time>2025-08-12T12:18:13.117Z</time>
      </trkpt>
      <trkpt lat="51.575475" lon="7.341861">
        <ele>62.467406</ele>
        <time>2025-08-12T12:18:40.993Z</time>
      </trkpt>
      <trkpt lat="51.575314" lon="7.340522">
        <ele>63.797758</ele>
        <time>2025-08-12T12:19:12.150Z</time>
      </trkpt>
      <trkpt lat="51.575279" lon="7.340402">
        <ele>63.927063</ele>
        <time>2025-08-12T12:19:15.521Z</time>
      </trkpt>
      <trkpt lat="51.575117" lon="7.340134">
        <ele>64.266915</ele>
        <time>2025-08-12T12:19:25.309Z</time>
      </trkpt>
      <trkpt lat="51.574536" lon="7.339170">
        <ele>65.290776</ele>
        <time>2025-08-12T12:19:58.656Z</time>
      </trkpt>
      <trkpt lat="51.574265" lon="7.338815">
        <ele>65.719494</ele>
        <time>2025-08-12T12:20:10.615Z</time>
      </trkpt>
      <trkpt lat="51.574027" lon="7.338404">
        <ele>66.147812</ele>
        <time>2025-08-12T12:20:20.984Z</time>
      </trkpt>
      <trkpt lat="51.574246" lon="7.338200">
        <ele>66.271742</ele>
        <time>2025-08-12T12:20:28.065Z</time>
      </trkpt>
      <trkpt lat="51.574598" lon="7.338010">
        <ele>65.573271</ele>
        <time>2025-08-12T12:20:37.908Z</time>
      </trkpt>
      <trkpt lat="51.574994" lon="7.337671">
        <ele>64.729418</ele>
        <time>2025-08-12T12:20:49.313Z</time>
      </trkpt>
      <trkpt lat="51.576673" lon="7.336466">
        <ele>61.335032</ele>
        <time>2025-08-12T12:21:36.722Z</time>
      </trkpt>
      <trkpt lat="51.577171" lon="7.336064">
        <ele>60.325777</ele>
        <time>2025-08-12T12:21:51.502Z</time>
      </trkpt>
      <trkpt lat="51.577749" lon="7.335672">
        <ele>59.599044</ele>
        <time>2025-08-12T12:22:08.666Z</time>
      </trkpt>
      <trkpt lat="51.577785" lon="7.335487">
        <ele>59.542347</ele>
        <time>2025-08-12T12:22:12.028Z</time>
      </trkpt>
      <trkpt lat="51.577930" lon="7.334788">
        <ele>59.326825</ele>
        <time>2025-08-12T12:22:20.470Z</time>
      </trkpt>
      <trkpt lat="51.578039" lon="7.334108">
        <ele>59.121439</ele>
        <time>2025-08-12T12:22:28.830Z</time>
      </trkpt>
      <trkpt lat="51.578067" lon="7.333717">
        <ele>59.006328</ele>
        <time>2025-08-12T12:22:33.689Z</time>
      </trkpt>
      <trkpt lat="51.578074" lon="7.331690">
        <ele>59.011877</ele>
        <time>2025-08-12T12:22:59.576Z</time>
      </trkpt>
      <trkpt lat="51.578078" lon="7.330692">
        <ele>59.081756</ele>
        <time>2025-08-12T12:23:11.947Z</time>
      </trkpt>
      <trkpt lat="51.578069" lon="7.330588">
        <ele>59.089108</ele>
        <time>2025-08-12T12:23:13.230Z</time>
      </trkpt>
      <trkpt lat="51.578062" lon="7.330494">
        <ele>59.095737</ele>
        <time>2025-08-12T12:23:14.255Z</time>
      </trkpt>
      <trkpt lat="51.578029" lon="7.330259">
        <ele>59.141132</ele>
        <time>2025-08-12T12:23:18.675Z</time>
      </trkpt>
      <trkpt lat="51.577575" lon="7.328772">
        <ele>59.499329</ele>
        <time>2025-08-12T12:23:49.421Z</time>
      </trkpt>
      <trkpt lat="51.577414" lon="7.328443">
        <ele>59.589866</ele>
        <time>2025-08-12T12:23:57.680Z</time>
      </trkpt>
      <trkpt lat="51.577290" lon="7.327868">
        <ele>59.721456</ele>
        <time>2025-08-12T12:24:10.107Z</time>
      </trkpt>
      <trkpt lat="51.576864" lon="7.326323">
        <ele>61.163573</ele>
        <time>2025-08-12T12:24:46.737Z</time>
      </trkpt>
      <trkpt lat="51.576566" lon="7.325839">
        <ele>61.748750</ele>
        <time>2025-08-12T12:25:01.872Z</time>
      </trkpt>
      <trkpt lat="51.575620" lon="7.324302">
        <ele>64.243924</ele>
        <time>2025-08-12T12:25:51.390Z</time>
      </trkpt>
      <trkpt lat="51.574685" lon="7.323076">
        <ele>66.488147</ele>
        <time>2025-08-12T12:26:38.655Z</time>
      </trkpt>
      <trkpt lat="51.573265" lon="7.321219">
        <ele>68.556134</ele>
        <time>2025-08-12T12:27:42.956Z</time>
      </trkpt>
      <trkpt lat="51.571342" lon="7.318791">
        <ele>66.604600</ele>
        <time>2025-08-12T12:28:51.012Z</time>
      </trkpt>
      <trkpt lat="51.570880" lon="7.318146">
        <ele>65.690555</ele>
        <time>2025-08-12T12:29:06.642Z</time>
      </trkpt>
      <trkpt lat="51.570697" lon="7.317891">
        <ele>65.315569</ele>
        <time>2025-08-12T12:29:12.743Z</time>
      </trkpt>
      <trkpt lat="51.570426" lon="7.318099">
        <ele>64.840404</ele>
        <time>2025-08-12T12:29:17.529Z</time>
      </trkpt>
      <trkpt lat="51.570261" lon="7.318140">
        <ele>64.576192</ele>
        <time>2025-08-12T12:29:20.246Z</time>
      </trkpt>
      <trkpt lat="51.569833" lon="7.318098">
        <ele>63.897614</ele>
        <time>2025-08-12T12:29:27.518Z</time>
      </trkpt>
      <trkpt lat="51.569361" lon="7.318164">
        <ele>63.147849</ele>
        <time>2025-08-12T12:29:35.947Z</time>
      </trkpt>
      <trkpt lat="51.569249" lon="7.318151">
        <ele>62.970145</ele>
        <time>2025-08-12T12:29:37.964Z</time>
      </trkpt>
      <trkpt lat="51.569045" lon="7.318339">
        <ele>62.690417</ele>
        <time>2025-08-12T12:29:42.211Z</time>
      </trkpt>
      <trkpt lat="51.568900" lon="7.318297">
        <ele>62.655980</ele>
        <time>2025-08-12T12:29:44.752Z</time>
      </trkpt>
      <trkpt lat="51.568580" lon="7.317983">
        <ele>62.568369</ele>
        <time>2025-08-12T12:29:51.993Z</time>
      </trkpt>
      <trkpt lat="51.568314" lon="7.317618">
        <ele>62.486652</ele>
        <time>2025-08-12T12:29:59.090Z</time>
      </trkpt>
      <trkpt lat="51.568295" lon="7.317532">
        <ele>62.473391</ele>
        <time>2025-08-12T12:30:00.220Z</time>
      </trkpt>
      <trkpt lat="51.568145" lon="7.317543">
        <ele>62.438294</ele>
        <time>2025-08-12T12:30:02.997Z</time>
      </trkpt>
      <trkpt lat="51.567921" lon="7.317572">
        <ele>62.385768</ele>
        <time>2025-08-12T12:30:07.118Z</time>
      </trkpt>
      <trkpt lat="51.567806" lon="7.317593">
        <ele>62.358715</ele>
        <time>2025-08-12T12:30:09.147Z</time>
      </trkpt>
      <trkpt lat="51.567577" lon="7.317636">
        <ele>62.304826</ele>
        <time>2025-08-12T12:30:13.192Z</time>
      </trkpt>
      <trkpt lat="51.567549" lon="7.317641">
        <ele>62.298241</ele>
        <time>2025-08-12T12:30:13.660Z</time>
      </trkpt>
      <trkpt lat="51.567022" lon="7.317739">
        <ele>62.058967</ele>
        <time>2025-08-12T12:30:22.803Z</time>
      </trkpt>
      <trkpt lat="51.566920" lon="7.317758">
        <ele>62.010211</ele>
        <time>2025-08-12T12:30:24.564Z</time>
      </trkpt>
      <trkpt lat="51.566544" lon="7.317807">
        <ele>61.831095</ele>
        <time>2025-08-12T12:30:30.888Z</time>
      </trkpt>
      <trkpt lat="51.566083" lon="7.317867">
        <ele>61.611488</ele>
        <time>2025-08-12T12:30:38.212Z</time>
      </trkpt>
      <trkpt lat="51.566053" lon="7.316989">
        <ele>61.561317</ele>
        <time>2025-08-12T12:30:47.309Z</time>
      </trkpt>
      <trkpt lat="51.566031" lon="7.316467">
        <ele>61.810916</ele>
        <time>2025-08-12T12:30:52.996Z</time>
      </trkpt>
      <trkpt lat="51.566019" lon="7.316260">
        <ele>61.910096</ele>
        <time>2025-08-12T12:30:55.424Z</time>
      </trkpt>
      <trkpt lat="51.565974" lon="7.315144">
        <ele>62.443619</ele>
        <time>2025-08-12T12:31:10.389Z</time>
      </trkpt>
      <trkpt lat="51.565971" lon="7.315086">
        <ele>62.471384</ele>
        <time>2025-08-12T12:31:11.226Z</time>
      </trkpt>
      <trkpt lat="51.565964" lon="7.314910">
        <ele>62.555519</ele>
        <time>2025-08-12T12:31:13.926Z</time>
      </trkpt>
      <trkpt lat="51.565960" lon="7.314741">
        <ele>62.636201</ele>
        <time>2025-08-12T12:31:16.557Z</time>
      </trkpt>
      <trkpt lat="51.565937" lon="7.314495">
        <ele>62.754879</ele>
        <time>2025-08-12T12:31:20.645Z</time>
      </trkpt>
      <trkpt lat="51.565889" lon="7.313826">
        <ele>63.196209</ele>
        <time>2025-08-12T12:31:31.610Z</time>
      </trkpt>
      <trkpt lat="51.565823" lon="7.312886">
        <ele>63.852892</ele>
        <time>2025-08-12T12:31:45.932Z</time>
      </trkpt>
      <trkpt lat="51.565748" lon="7.311717">
        <ele>64.668706</ele>
        <time>2025-08-12T12:32:01.895Z</time>
      </trkpt>
      <trkpt lat="51.565733" lon="7.311479">
        <ele>64.805425</ele>
        <time>2025-08-12T12:32:04.597Z</time>
      </trkpt>
      <trkpt lat="51.565713" lon="7.311178">
        <ele>64.568074</ele>
        <time>2025-08-12T12:32:07.774Z</time>
      </trkpt>
      <trkpt lat="51.565672" lon="7.310519">
        <ele>64.048786</ele>
        <time>2025-08-12T12:32:14.150Z</time>
      </trkpt>
      <trkpt lat="51.565668" lon="7.310450">
        <ele>63.994450</ele>
        <time>2025-08-12T12:32:14.797Z</time>
      </trkpt>
      <trkpt lat="51.565620" lon="7.309689">
        <ele>63.394703</ele>
        <time>2025-08-12T12:32:21.877Z</time>
      </trkpt>
      <trkpt lat="51.565579" lon="7.309031">
        <ele>62.876195</ele>
        <time>2025-08-12T12:32:27.934Z</time>
      </trkpt>
      <trkpt lat="51.565577" lon="7.308974">
        <ele>62.831431</ele>
        <time>2025-08-12T12:32:28.462Z</time>
      </trkpt>
      <trkpt lat="51.565566" lon="7.308814">
        <ele>62.705214</ele>
        <time>2025-08-12T12:32:29.945Z</time>
      </trkpt>
      <trkpt lat="51.565568" lon="7.308657">
        <ele>62.582087</ele>
        <time>2025-08-12T12:32:31.399Z</time>
      </trkpt>
      <trkpt lat="51.565618" lon="7.308550">
        <ele>62.530530</ele>
        <time>2025-08-12T12:32:32.649Z</time>
      </trkpt>
      <trkpt lat="51.565617" lon="7.308415">
        <ele>62.499900</ele>
        <time>2025-08-12T12:32:33.917Z</time>
      </trkpt>
      <trkpt lat="51.565566" lon="7.308310">
        <ele>62.469669</ele>
        <time>2025-08-12T12:32:35.191Z</time>
      </trkpt>
      <trkpt lat="51.565527" lon="7.308282">
        <ele>62.454082</ele>
        <time>2025-08-12T12:32:35.844Z</time>
      </trkpt>
      <trkpt lat="51.565485" lon="7.308142">
        <ele>62.418815</ele>
        <time>2025-08-12T12:32:37.334Z</time>
      </trkpt>
      <trkpt lat="51.565504" lon="7.308139">
        <ele>62.411847</ele>
        <time>2025-08-12T12:32:37.734Z</time>
      </trkpt>
      <trkpt lat="51.565563" lon="7.307929">
        <ele>62.359564</ele>
        <time>2025-08-12T12:32:40.276Z</time>
      </trkpt>
      <trkpt lat="51.565579" lon="7.307637">
        <ele>62.293062</ele>
        <time>2025-08-12T12:32:43.613Z</time>
      </trkpt>
      <trkpt lat="51.565441" lon="7.306964">
        <ele>62.132285</ele>
        <time>2025-08-12T12:32:52.213Z</time>
      </trkpt>
      <trkpt lat="51.565312" lon="7.305900">
        <ele>61.924059</ele>
        <time>2025-08-12T12:33:06.778Z</time>
      </trkpt>
      <trkpt lat="51.565227" lon="7.305192">
        <ele>62.411194</ele>
        <time>2025-08-12T12:33:21.620Z</time>
      </trkpt>
      <trkpt lat="51.565175" lon="7.305026">
        <ele>62.536771</ele>
        <time>2025-08-12T12:33:25.440Z</time>
      </trkpt>
      <trkpt lat="51.565099" lon="7.304889">
        <ele>62.660818</ele>
        <time>2025-08-12T12:33:29.281Z</time>
      </trkpt>
      <trkpt lat="51.565316" lon="7.304589">
        <ele>62.971767</ele>
        <time>2025-08-12T12:33:39.012Z</time>
      </trkpt>
      <trkpt lat="51.565617" lon="7.304355">
        <ele>63.335078</ele>
        <time>2025-08-12T12:33:50.627Z</time>
      </trkpt>
      <trkpt lat="51.565654" lon="7.304259">
        <ele>63.411386</ele>
        <time>2025-08-12T12:33:53.123Z</time>
      </trkpt>
      <trkpt lat="51.565708" lon="7.303658">
        <ele>63.821612</ele>
        <time>2025-08-12T12:34:06.779Z</time>
      </trkpt>
      <trkpt lat="51.565758" lon="7.303484">
        <ele>63.935832</ele>
        <time>2025-08-12T12:34:11.143Z</time>
      </trkpt>
      <trkpt lat="51.566398" lon="7.301678">
        <ele>65.126860</ele>
        <time>2025-08-12T12:34:54.788Z</time>
      </trkpt>
      <trkpt lat="51.566726" lon="7.301136">
        <ele>65.528850</ele>
        <time>2025-08-12T12:35:09.603Z</time>
      </trkpt>
      <trkpt lat="51.566773" lon="7.300936">
        <ele>65.577329</ele>
        <time>2025-08-12T12:35:13.712Z</time>
      </trkpt>
      <trkpt lat="51.566499" lon="7.300650">
        <ele>65.696465</ele>
        <time>2025-08-12T12:35:20.419Z</time>
      </trkpt>
      <trkpt lat="51.565679" lon="7.299472">
        <ele>66.097462</ele>
        <time>2025-08-12T12:35:43.323Z</time>
      </trkpt>
      <trkpt lat="51.565545" lon="7.299361">
        <ele>66.152438</ele>
        <time>2025-08-12T12:35:46.700Z</time>
      </trkpt>
      <trkpt lat="51.564128" lon="7.298696">
        <ele>67.059536</ele>
        <time>2025-08-12T12:36:19.524Z</time>
      </trkpt>
      <trkpt lat="51.563478" lon="7.298535">
        <ele>67.416532</ele>
        <time>2025-08-12T12:36:34.466Z</time>
      </trkpt>
      <trkpt lat="51.563508" lon="7.297941">
        <ele>67.583967</ele>
        <time>2025-08-12T12:36:42.716Z</time>
      </trkpt>
      <trkpt lat="51.563740" lon="7.295691">
        <ele>68.173065</ele>
        <time>2025-08-12T12:37:12.477Z</time>
      </trkpt>
      <trkpt lat="51.563769" lon="7.295408">
        <ele>68.222099</ele>
        <time>2025-08-12T12:37:15.970Z</time>
      </trkpt>
      <trkpt lat="51.563811" lon="7.295319">
        <ele>68.241202</ele>
        <time>2025-08-12T12:37:17.327Z</time>
      </trkpt>
      <trkpt lat="51.564527" lon="7.294484">
        <ele>68.484408</ele>
        <time>2025-08-12T12:37:35.235Z</time>
      </trkpt>
      <trkpt lat="51.564605" lon="7.294309">
        <ele>68.521220</ele>
        <time>2025-08-12T12:37:38.061Z</time>
      </trkpt>
      <trkpt lat="51.564701" lon="7.294223">
        <ele>68.551439</ele>
        <time>2025-08-12T12:37:40.407Z</time>
      </trkpt>
      <trkpt lat="51.565058" lon="7.293490">
        <ele>69.165216</ele>
        <time>2025-08-12T12:37:53.434Z</time>
      </trkpt>
      <trkpt lat="51.565172" lon="7.293118">
        <ele>69.497656</ele>
        <time>2025-08-12T12:37:59.764Z</time>
      </trkpt>
      <trkpt lat="51.565249" lon="7.292550">
        <ele>69.963635</ele>
        <time>2025-08-12T12:38:09.450Z</time>
      </trkpt>
      <trkpt lat="51.565319" lon="7.292352">
        <ele>70.146213</ele>
        <time>2025-08-12T12:38:13.387Z</time>
      </trkpt>
      <trkpt lat="51.565546" lon="7.292007">
        <ele>70.548885</ele>
        <time>2025-08-12T12:38:21.899Z</time>
      </trkpt>
      <trkpt lat="51.565594" lon="7.291991">
        <ele>70.612093</ele>
        <time>2025-08-12T12:38:23.243Z</time>
      </trkpt>
      <trkpt lat="51.565910" lon="7.291107">
        <ele>70.974981</ele>
        <time>2025-08-12T12:38:39.842Z</time>
      </trkpt>
      <trkpt lat="51.565587" lon="7.289023">
        <ele>71.200036</ele>
        <time>2025-08-12T12:39:19.414Z</time>
      </trkpt>
      <trkpt lat="51.565341" lon="7.287656">
        <ele>69.609875</ele>
        <time>2025-08-12T12:39:42.619Z</time>
      </trkpt>
      <trkpt lat="51.565273" lon="7.287475">
        <ele>69.355405</ele>
        <time>2025-08-12T12:39:46.000Z</time>
      </trkpt>
      <trkpt lat="51.564254" lon="7.286004">
        <ele>66.427205</ele>
        <time>2025-08-12T12:40:21.023Z</time>
      </trkpt>
      <trkpt lat="51.566487" lon="7.282282">
        <ele>58.296520</ele>
        <time>2025-08-12T12:41:06.624Z</time>
      </trkpt>
      <trkpt lat="51.566896" lon="7.281668">
        <ele>57.003228</ele>
        <time>2025-08-12T12:41:14.232Z</time>
      </trkpt>
      <trkpt lat="51.566977" lon="7.281578">
        <ele>56.775646</ele>
        <time>2025-08-12T12:41:15.650Z</time>
      </trkpt>
      <trkpt lat="51.566936" lon="7.281485">
        <ele>56.611800</ele>
        <time>2025-08-12T12:41:16.683Z</time>
      </trkpt>
      <trkpt lat="51.567081" lon="7.281354">
        <ele>56.227339</ele>
        <time>2025-08-12T12:41:19.334Z</time>
      </trkpt>
      <trkpt lat="51.567594" lon="7.280589">
        <ele>54.610219</ele>
        <time>2025-08-12T12:41:31.036Z</time>
      </trkpt>
      <trkpt lat="51.567643" lon="7.280546">
        <ele>54.481181</ele>
        <time>2025-08-12T12:41:32.015Z</time>
      </trkpt>
      <trkpt lat="51.567732" lon="7.280556">
        <ele>54.443402</ele>
        <time>2025-08-12T12:41:33.606Z</time>
      </trkpt>
      <trkpt lat="51.567847" lon="7.280569">
        <ele>54.398487</ele>
        <time>2025-08-12T12:41:35.655Z</time>
      </trkpt>
      <trkpt lat="51.567914" lon="7.280517">
        <ele>54.369504</ele>
        <time>2025-08-12T12:41:36.998Z</time>
      </trkpt>
      <trkpt lat="51.567996" lon="7.280443">
        <ele>54.332873</ele>
        <time>2025-08-12T12:41:38.583Z</time>
      </trkpt>
      <trkpt lat="51.568088" lon="7.280367">
        <ele>54.292580</ele>
        <time>2025-08-12T12:41:40.340Z</time>
      </trkpt>
      <trkpt lat="51.568372" lon="7.280069">
        <ele>54.160477</ele>
        <time>2025-08-12T12:41:46.994Z</time>
      </trkpt>
      <trkpt lat="51.568707" lon="7.278810">
        <ele>53.828821</ele>
        <time>2025-08-12T12:42:04.228Z</time>
      </trkpt>
      <trkpt lat="51.568878" lon="7.278518">
        <ele>53.776344</ele>
        <time>2025-08-12T12:42:08.946Z</time>
      </trkpt>
      <trkpt lat="51.568974" lon="7.278219">
        <ele>53.775548</ele>
        <time>2025-08-12T12:42:12.857Z</time>
      </trkpt>
      <trkpt lat="51.569147" lon="7.278016">
        <ele>53.774734</ele>
        <time>2025-08-12T12:42:16.896Z</time>
      </trkpt>
      <trkpt lat="51.569229" lon="7.278220">
        <ele>53.774160</ele>
        <time>2025-08-12T12:42:20.321Z</time>
      </trkpt>
      <trkpt lat="51.569229" lon="7.278289">
        <ele>53.773997</ele>
        <time>2025-08-12T12:42:21.301Z</time>
      </trkpt>
      <trkpt lat="51.569858" lon="7.277765">
        <ele>53.771303</ele>
        <time>2025-08-12T12:42:33.836Z</time>
      </trkpt>
      <trkpt lat="51.570224" lon="7.277493">
        <ele>53.777286</ele>
        <time>2025-08-12T12:42:41.348Z</time>
      </trkpt>
      <trkpt lat="51.571545" lon="7.276509">
        <ele>54.010448</ele>
        <time>2025-08-12T12:43:10.740Z</time>
      </trkpt>
      <trkpt lat="51.572285" lon="7.275977">
        <ele>53.505650</ele>
        <time>2025-08-12T12:43:23.828Z</time>
      </trkpt>
      <trkpt lat="51.572714" lon="7.275654">
        <ele>52.996062</ele>
        <time>2025-08-12T12:43:30.767Z</time>
      </trkpt>
      <trkpt lat="51.572780" lon="7.275591">
        <ele>52.913498</ele>
        <time>2025-08-12T12:43:31.911Z</time>
      </trkpt>
      <trkpt lat="51.573290" lon="7.275085">
        <ele>52.268866</ele>
        <time>2025-08-12T12:43:41.060Z</time>
      </trkpt>
      <trkpt lat="51.573363" lon="7.275016">
        <ele>52.177778</ele>
        <time>2025-08-12T12:43:42.410Z</time>
      </trkpt>
      <trkpt lat="51.573407" lon="7.274975">
        <ele>52.123073</ele>
        <time>2025-08-12T12:43:43.217Z</time>
      </trkpt>
      <trkpt lat="51.574154" lon="7.274452">
        <ele>52.989405</ele>
        <time>2025-08-12T12:43:58.599Z</time>
      </trkpt>
      <trkpt lat="51.575806" lon="7.273356">
        <ele>55.173952</ele>
        <time>2025-08-12T12:44:45.481Z</time>
      </trkpt>
      <trkpt lat="51.576002" lon="7.273338">
        <ele>55.452149</ele>
        <time>2025-08-12T12:44:50.042Z</time>
      </trkpt>
      <trkpt lat="51.576288" lon="7.273379">
        <ele>55.859036</ele>
        <time>2025-08-12T12:44:56.423Z</time>
      </trkpt>
      <trkpt lat="51.576717" lon="7.273546">
        <ele>56.484496</ele>
        <time>2025-08-12T12:45:05.700Z</time>
      </trkpt>
      <trkpt lat="51.577132" lon="7.273753">
        <ele>56.627582</ele>
        <time>2025-08-12T12:45:14.094Z</time>
      </trkpt>
      <trkpt lat="51.577366" lon="7.273806">
        <ele>56.655166</ele>
        <time>2025-08-12T12:45:18.476Z</time>
      </trkpt>
      <trkpt lat="51.577734" lon="7.273690">
        <ele>56.698938</ele>
        <time>2025-08-12T12:45:25.308Z</time>
      </trkpt>
      <trkpt lat="51.580014" lon="7.272704">
        <ele>56.416179</ele>
        <time>2025-08-12T12:46:06.570Z</time>
      </trkpt>
      <trkpt lat="51.579998" lon="7.272945">
        <ele>56.379047</ele>
        <time>2025-08-12T12:46:09.083Z</time>
      </trkpt>
      <trkpt lat="51.580236" lon="7.277216">
        <ele>55.223893</ele>
        <time>2025-08-12T12:46:52.613Z</time>
      </trkpt>
      <trkpt lat="51.580343" lon="7.279202">
        <ele>55.574357</ele>
        <time>2025-08-12T12:47:17.494Z</time>
      </trkpt>
      <trkpt lat="51.580505" lon="7.281911">
        <ele>57.530716</ele>
        <time>2025-08-12T12:47:58.427Z</time>
      </trkpt>
      <trkpt lat="51.580566" lon="7.283075">
        <ele>57.235372</ele>
        <time>2025-08-12T12:48:11.431Z</time>
      </trkpt>
      <trkpt lat="51.580606" lon="7.283342">
        <ele>57.165931</ele>
        <time>2025-08-12T12:48:14.198Z</time>
      </trkpt>
      <trkpt lat="51.580742" lon="7.283872">
        <ele>57.020954</ele>
        <time>2025-08-12T12:48:19.741Z</time>
      </trkpt>
      <trkpt lat="51.581072" lon="7.284561">
        <ele>56.714481</ele>
        <time>2025-08-12T12:48:28.060Z</time>
      </trkpt>
      <trkpt lat="51.581474" lon="7.285156">
        <ele>55.919714</ele>
        <time>2025-08-12T12:48:36.533Z</time>
      </trkpt>
      <trkpt lat="51.582044" lon="7.286239">
        <ele>54.636381</ele>
        <time>2025-08-12T12:48:49.921Z</time>
      </trkpt>
      <trkpt lat="51.581779" lon="7.286846">
        <ele>54.131184</ele>
        <time>2025-08-12T12:48:56.857Z</time>
      </trkpt>
      <trkpt lat="51.581726" lon="7.286911">
        <ele>54.098007</ele>
        <time>2025-08-12T12:48:57.850Z</time>
      </trkpt>
      <trkpt lat="51.581469" lon="7.287508">
        <ele>53.873316</ele>
        <time>2025-08-12T12:49:09.940Z</time>
      </trkpt>
      <trkpt lat="51.577313" lon="7.283822">
        <ele>51.677451</ele>
        <time>2025-08-12T12:50:41.169Z</time>
      </trkpt>
      <trkpt lat="51.576757" lon="7.283220">
        <ele>50.950542</ele>
        <time>2025-08-12T12:50:52.567Z</time>
      </trkpt>
      <trkpt lat="51.576257" lon="7.282554">
        <ele>50.246483</ele>
        <time>2025-08-12T12:51:03.613Z</time>
      </trkpt>
      <trkpt lat="51.576012" lon="7.282087">
        <ele>49.834503</ele>
        <time>2025-08-12T12:51:10.453Z</time>
      </trkpt>
      <trkpt lat="51.573701" lon="7.276092">
        <ele>49.812390</ele>
        <time>2025-08-12T12:52:39.543Z</time>
      </trkpt>
      <trkpt lat="51.573309" lon="7.275190">
        <ele>49.641251</ele>
        <time>2025-08-12T12:52:52.120Z</time>
      </trkpt>
      <trkpt lat="51.573140" lon="7.274702">
        <ele>49.554387</ele>
        <time>2025-08-12T12:52:58.468Z</time>
      </trkpt>
      <trkpt lat="51.571101" lon="7.269415">
        <ele>49.226797</ele>
        <time>2025-08-12T12:54:14.285Z</time>
      </trkpt>
      <trkpt lat="51.569590" lon="7.265497">
        <ele>49.342788</ele>
        <time>2025-08-12T12:55:11.680Z</time>
      </trkpt>
      <trkpt lat="51.568102" lon="7.261712">
        <ele>50.670991</ele>
        <time>2025-08-12T12:56:08.015Z</time>
      </trkpt>
      <trkpt lat="51.568028" lon="7.261402">
        <ele>51.083511</ele>
        <time>2025-08-12T12:56:13.522Z</time>
      </trkpt>
      <trkpt lat="51.567879" lon="7.260973">
        <ele>51.693992</ele>
        <time>2025-08-12T12:56:21.790Z</time>
      </trkpt>
      <trkpt lat="51.567841" lon="7.260669">
        <ele>52.079200</ele>
        <time>2025-08-12T12:56:27.432Z</time>
      </trkpt>
      <trkpt lat="51.567726" lon="7.260159">
        <ele>52.753153</ele>
        <time>2025-08-12T12:56:37.763Z</time>
      </trkpt>
      <trkpt lat="51.567721" lon="7.260048">
        <ele>52.891406</ele>
        <time>2025-08-12T12:56:39.925Z</time>
      </trkpt>
      <trkpt lat="51.567775" lon="7.259542">
        <ele>53.436500</ele>
        <time>2025-08-12T12:56:50.183Z</time>
      </trkpt>
      <trkpt lat="51.567719" lon="7.259067">
        <ele>53.796337</ele>
        <time>2025-08-12T12:56:59.568Z</time>
      </trkpt>
      <trkpt lat="51.567756" lon="7.258827">
        <ele>53.980376</ele>
        <time>2025-08-12T12:57:03.987Z</time>
      </trkpt>
      <trkpt lat="51.568112" lon="7.258469">
        <ele>54.483071</ele>
        <time>2025-08-12T12:57:14.498Z</time>
      </trkpt>
      <trkpt lat="51.567947" lon="7.258114">
        <ele>54.812988</ele>
        <time>2025-08-12T12:57:20.770Z</time>
      </trkpt>
      <trkpt lat="51.567848" lon="7.257940">
        <ele>54.988554</ele>
        <time>2025-08-12T12:57:23.727Z</time>
      </trkpt>
      <trkpt lat="51.566059" lon="7.253336">
        <ele>51.740900</ele>
        <time>2025-08-12T12:58:21.521Z</time>
      </trkpt>
      <trkpt lat="51.566020" lon="7.252781">
        <ele>51.403302</ele>
        <time>2025-08-12T12:58:28.025Z</time>
      </trkpt>
      <trkpt lat="51.565758" lon="7.251950">
        <ele>51.207769</ele>
        <time>2025-08-12T12:58:40.031Z</time>
      </trkpt>
      <trkpt lat="51.565712" lon="7.251298">
        <ele>51.283680</ele>
        <time>2025-08-12T12:58:49.407Z</time>
      </trkpt>
      <trkpt lat="51.565671" lon="7.250531">
        <ele>51.372738</ele>
        <time>2025-08-12T12:58:59.194Z</time>
      </trkpt>
      <trkpt lat="51.565652" lon="7.250398">
        <ele>51.388525</ele>
        <time>2025-08-12T12:59:00.888Z</time>
      </trkpt>
      <trkpt lat="51.565553" lon="7.250089">
        <ele>51.428740</ele>
        <time>2025-08-12T12:59:05.144Z</time>
      </trkpt>
      <trkpt lat="51.565527" lon="7.249677">
        <ele>51.476647</ele>
        <time>2025-08-12T12:59:10.343Z</time>
      </trkpt>
      <trkpt lat="51.565482" lon="7.248838">
        <ele>51.362506</ele>
        <time>2025-08-12T12:59:20.778Z</time>
      </trkpt>
      <trkpt lat="51.565474" lon="7.248700">
        <ele>51.341111</ele>
        <time>2025-08-12T12:59:22.420Z</time>
      </trkpt>
      <trkpt lat="51.565307" lon="7.245306">
        <ele>51.460599</ele>
        <time>2025-08-12T13:00:02.533Z</time>
      </trkpt>
      <trkpt lat="51.565279" lon="7.244990">
        <ele>51.554990</ele>
        <time>2025-08-12T13:00:07.125Z</time>
      </trkpt>
      <trkpt lat="51.565215" lon="7.244615">
        <ele>51.669988</ele>
        <time>2025-08-12T13:00:13.062Z</time>
      </trkpt>
      <trkpt lat="51.565275" lon="7.243914">
        <ele>51.879243</ele>
        <time>2025-08-12T13:00:24.304Z</time>
      </trkpt>
      <trkpt lat="51.565258" lon="7.243417">
        <ele>51.854810</ele>
        <time>2025-08-12T13:00:32.463Z</time>
      </trkpt>
      <trkpt lat="51.565241" lon="7.242951">
        <ele>51.816045</ele>
        <time>2025-08-12T13:00:39.529Z</time>
      </trkpt>
      <trkpt lat="51.565259" lon="7.242833">
        <ele>51.805955</ele>
        <time>2025-08-12T13:00:41.267Z</time>
      </trkpt>
      <trkpt lat="51.565275" lon="7.242554">
        <ele>51.782688</ele>
        <time>2025-08-12T13:00:45.373Z</time>
      </trkpt>
      <trkpt lat="51.565308" lon="7.241932">
        <ele>51.730847</ele>
        <time>2025-08-12T13:00:53.328Z</time>
      </trkpt>
      <trkpt lat="51.565280" lon="7.241202">
        <ele>51.670111</ele>
        <time>2025-08-12T13:01:01.144Z</time>
      </trkpt>
      <trkpt lat="51.565243" lon="7.240704">
        <ele>51.089143</ele>
        <time>2025-08-12T13:01:06.011Z</time>
      </trkpt>
      <trkpt lat="51.565283" lon="7.240642">
        <ele>50.912834</ele>
        <time>2025-08-12T13:01:06.754Z</time>
      </trkpt>
      <trkpt lat="51.565298" lon="7.240534">
        <ele>50.694486</ele>
        <time>2025-08-12T13:01:07.676Z</time>
      </trkpt>
      <trkpt lat="51.565233" lon="7.239085">
        <ele>47.828038</ele>
        <time>2025-08-12T13:01:19.642Z</time>
      </trkpt>
      <trkpt lat="51.565221" lon="7.238827">
        <ele>47.317556</ele>
        <time>2025-08-12T13:01:21.795Z</time>
      </trkpt>
      <trkpt lat="51.565211" lon="7.238587">
        <ele>46.842950</ele>
        <time>2025-08-12T13:01:23.811Z</time>
      </trkpt>
      <trkpt lat="51.565200" lon="7.238347">
        <ele>46.368121</ele>
        <time>2025-08-12T13:01:25.856Z</time>
      </trkpt>
      <trkpt lat="51.565186" lon="7.238039">
        <ele>45.856080</ele>
        <time>2025-08-12T13:01:28.553Z</time>
      </trkpt>
      <trkpt lat="51.565103" lon="7.238023">
        <ele>45.730824</ele>
        <time>2025-08-12T13:01:29.897Z</time>
      </trkpt>
      <trkpt lat="51.565017" lon="7.237814">
        <ele>45.497367</ele>
        <time>2025-08-12T13:01:32.446Z</time>
      </trkpt>
      <trkpt lat="51.564418" lon="7.235323">
        <ele>43.282308</ele>
        <time>2025-08-12T13:02:01.487Z</time>
      </trkpt>
      <trkpt lat="51.564311" lon="7.234880">
        <ele>43.345990</ele>
        <time>2025-08-12T13:02:06.986Z</time>
      </trkpt>
      <trkpt lat="51.563704" lon="7.232077">
        <ele>43.732829</ele>
        <time>2025-08-12T13:02:48.613Z</time>
      </trkpt>
      <trkpt lat="51.563660" lon="7.231867">
        <ele>43.759531</ele>
        <time>2025-08-12T13:02:51.902Z</time>
      </trkpt>
      <trkpt lat="51.562120" lon="7.224080">
        <ele>44.684572</ele>
        <time>2025-08-12T13:04:33.858Z</time>
      </trkpt>
      <trkpt lat="51.562090" lon="7.223777">
        <ele>44.784326</ele>
        <time>2025-08-12T13:04:37.903Z</time>
      </trkpt>
      <trkpt lat="51.562074" lon="7.223164">
        <ele>44.983802</ele>
        <time>2025-08-12T13:04:46.184Z</time>
      </trkpt>
      <trkpt lat="51.561999" lon="7.221630">
        <ele>45.476737</ele>
        <time>2025-08-12T13:05:07.936Z</time>
      </trkpt>
      <trkpt lat="51.561901" lon="7.220993">
        <ele>45.633428</ele>
        <time>2025-08-12T13:05:17.318Z</time>
      </trkpt>
      <trkpt lat="51.561722" lon="7.220284">
        <ele>45.816151</ele>
        <time>2025-08-12T13:05:28.073Z</time>
      </trkpt>
      <trkpt lat="51.561500" lon="7.219654">
        <ele>45.989068</ele>
        <time>2025-08-12T13:05:37.477Z</time>
      </trkpt>
      <trkpt lat="51.561256" lon="7.219055">
        <ele>46.155067</ele>
        <time>2025-08-12T13:05:46.142Z</time>
      </trkpt>
      <trkpt lat="51.561098" lon="7.218242">
        <ele>46.278959</ele>
        <time>2025-08-12T13:05:56.156Z</time>
      </trkpt>
      <trkpt lat="51.560862" lon="7.217055">
        <ele>46.460221</ele>
        <time>2025-08-12T13:06:11.888Z</time>
      </trkpt>
      <trkpt lat="51.560887" lon="7.216930">
        <ele>46.479320</ele>
        <time>2025-08-12T13:06:13.593Z</time>
      </trkpt>
      <trkpt lat="51.561048" lon="7.216600">
        <ele>46.540333</ele>
        <time>2025-08-12T13:06:19.449Z</time>
      </trkpt>
      <trkpt lat="51.561090" lon="7.216449">
        <ele>46.564394</ele>
        <time>2025-08-12T13:06:21.872Z</time>
      </trkpt>
      <trkpt lat="51.560891" lon="7.215365">
        <ele>47.278005</ele>
        <time>2025-08-12T13:06:39.267Z</time>
      </trkpt>
      <trkpt lat="51.560914" lon="7.215323">
        <ele>47.313967</ele>
        <time>2025-08-12T13:06:40.162Z</time>
      </trkpt>
      <trkpt lat="51.561573" lon="7.215000">
        <ele>48.025971</ele>
        <time>2025-08-12T13:06:57.116Z</time>
      </trkpt>
      <trkpt lat="51.561540" lon="7.214816">
        <ele>48.149014</ele>
        <time>2025-08-12T13:07:01.233Z</time>
      </trkpt>
      <trkpt lat="51.561473" lon="7.214442">
        <ele>48.399091</ele>
        <time>2025-08-12T13:07:09.569Z</time>
      </trkpt>
      <trkpt lat="51.561221" lon="7.213044">
        <ele>48.197132</ele>
        <time>2025-08-12T13:07:37.419Z</time>
      </trkpt>
      <trkpt lat="51.561144" lon="7.212615">
        <ele>48.124443</ele>
        <time>2025-08-12T13:07:45.468Z</time>
      </trkpt>
      <trkpt lat="51.561058" lon="7.212153">
        <ele>48.045935</ele>
        <time>2025-08-12T13:07:53.900Z</time>
      </trkpt>
      <trkpt lat="51.560830" lon="7.210923">
        <ele>47.742234</ele>
        <time>2025-08-12T13:08:14.993Z</time>
      </trkpt>
      <trkpt lat="51.560631" lon="7.209835">
        <ele>47.410643</ele>
        <time>2025-08-12T13:08:34.889Z</time>
      </trkpt>
      <trkpt lat="51.560524" lon="7.209885">
        <ele>47.358241</ele>
        <time>2025-08-12T13:08:38.170Z</time>
      </trkpt>
      <trkpt lat="51.560436" lon="7.209409">
        <ele>47.213044</ele>
        <time>2025-08-12T13:08:47.770Z</time>
      </trkpt>
      <trkpt lat="51.560425" lon="7.209353">
        <ele>47.195873</ele>
        <time>2025-08-12T13:08:49.005Z</time>
      </trkpt>
      <trkpt lat="51.560506" lon="7.209314">
        <ele>47.156108</ele>
        <time>2025-08-12T13:08:50.747Z</time>
      </trkpt>
      <trkpt lat="51.560617" lon="7.209265">
        <ele>47.121531</ele>
        <time>2025-08-12T13:08:53.279Z</time>
      </trkpt>
      <trkpt lat="51.560982" lon="7.209091">
        <ele>47.372232</ele>
        <time>2025-08-12T13:09:01.724Z</time>
      </trkpt>
      <trkpt lat="51.561040" lon="7.209058">
        <ele>47.412746</ele>
        <time>2025-08-12T13:09:03.284Z</time>
      </trkpt>
      <trkpt lat="51.561504" lon="7.211600">
        <ele>48.494400</ele>
        <time>2025-08-12T13:09:39.825Z</time>
      </trkpt>
      <trkpt lat="51.561514" lon="7.211651">
        <ele>48.515973</ele>
        <time>2025-08-12T13:09:40.529Z</time>
      </trkpt>
      <trkpt lat="51.561701" lon="7.212636">
        <ele>48.931439</ele>
        <time>2025-08-12T13:09:54.503Z</time>
      </trkpt>
      <trkpt lat="51.561727" lon="7.212784">
        <ele>48.993480</ele>
        <time>2025-08-12T13:09:56.642Z</time>
      </trkpt>
      <trkpt lat="51.561701" lon="7.212636">
        <ele>49.055521</ele>
        <time>2025-08-12T13:09:58.778Z</time>
      </trkpt>
      <trkpt lat="51.562143" lon="7.212555">
        <ele>49.344189</ele>
        <time>2025-08-12T13:10:08.828Z</time>
      </trkpt>
      <trkpt lat="51.562199" lon="7.212543">
        <ele>49.380849</ele>
        <time>2025-08-12T13:10:10.150Z</time>
      </trkpt>
      <trkpt lat="51.562779" lon="7.212421">
        <ele>49.844261</ele>
        <time>2025-08-12T13:10:22.876Z</time>
      </trkpt>
      <trkpt lat="51.563627" lon="7.212218">
        <ele>50.556761</ele>
        <time>2025-08-12T13:10:41.571Z</time>
      </trkpt>
      <trkpt lat="51.564373" lon="7.212043">
        <ele>51.011863</ele>
        <time>2025-08-12T13:10:56.892Z</time>
      </trkpt>
      <trkpt lat="51.564380" lon="7.214335">
        <ele>51.300859</ele>
        <time>2025-08-12T13:11:23.307Z</time>
      </trkpt>
      <trkpt lat="51.564406" lon="7.214456">
        <ele>51.317002</ele>
        <time>2025-08-12T13:11:24.655Z</time>
      </trkpt>
      <trkpt lat="51.564470" lon="7.214499">
        <ele>51.305682</ele>
        <time>2025-08-12T13:11:25.877Z</time>
      </trkpt>
      <trkpt lat="51.565844" lon="7.214553">
        <ele>50.857179</ele>
        <time>2025-08-12T13:11:49.055Z</time>
      </trkpt>
      <trkpt lat="51.566757" lon="7.214345">
        <ele>50.582319</ele>
        <time>2025-08-12T13:12:04.836Z</time>
      </trkpt>
      <trkpt lat="51.567592" lon="7.214156">
        <ele>50.347391</ele>
        <time>2025-08-12T13:12:19.478Z</time>
      </trkpt>
      <trkpt lat="51.567728" lon="7.214135">
        <ele>50.309327</ele>
        <time>2025-08-12T13:12:21.852Z</time>
      </trkpt>
      <trkpt lat="51.567831" lon="7.215258">
        <ele>50.016609</ele>
        <time>2025-08-12T13:12:34.298Z</time>
      </trkpt>
      <trkpt lat="51.567985" lon="7.216939">
        <ele>49.487683</ele>
        <time>2025-08-12T13:12:52.363Z</time>
      </trkpt>
      <trkpt lat="51.568276" lon="7.220122">
        <ele>49.130381</ele>
        <time>2025-08-12T13:13:28.741Z</time>
      </trkpt>
      <trkpt lat="51.568419" lon="7.222018">
        <ele>48.902349</ele>
        <time>2025-08-12T13:13:49.860Z</time>
      </trkpt>
      <trkpt lat="51.568435" lon="7.222202">
        <ele>48.879323</ele>
        <time>2025-08-12T13:13:51.881Z</time>
      </trkpt>
      <trkpt lat="51.568472" lon="7.222640">
        <ele>48.824542</ele>
        <time>2025-08-12T13:13:56.613Z</time>
      </trkpt>
      <trkpt lat="51.568568" lon="7.223759">
        <ele>48.564628</ele>
        <time>2025-08-12T13:14:12.247Z</time>
      </trkpt>
      <trkpt lat="51.568579" lon="7.223900">
        <ele>48.518560</ele>
        <time>2025-08-12T13:14:14.157Z</time>
      </trkpt>
      <trkpt lat="51.568670" lon="7.225226">
        <ele>48.086085</ele>
        <time>2025-08-12T13:14:32.380Z</time>
      </trkpt>
      <trkpt lat="51.568689" lon="7.225283">
        <ele>48.065117</ele>
        <time>2025-08-12T13:14:33.283Z</time>
      </trkpt>
      <trkpt lat="51.568517" lon="7.225572">
        <ele>47.935408</ele>
        <time>2025-08-12T13:14:37.469Z</time>
      </trkpt>
      <trkpt lat="51.568476" lon="7.225686">
        <ele>47.892711</ele>
        <time>2025-08-12T13:14:38.859Z</time>
      </trkpt>
      <trkpt lat="51.568464" lon="7.225833">
        <ele>47.844647</ele>
        <time>2025-08-12T13:14:40.411Z</time>
      </trkpt>
      <trkpt lat="51.568628" lon="7.227127">
        <ele>47.856219</ele>
        <time>2025-08-12T13:14:54.666Z</time>
      </trkpt>
      <trkpt lat="51.568726" lon="7.227864">
        <ele>47.877697</ele>
        <time>2025-08-12T13:15:03.445Z</time>
      </trkpt>
      <trkpt lat="51.568863" lon="7.229007">
        <ele>47.856516</ele>
        <time>2025-08-12T13:15:17.512Z</time>
      </trkpt>
      <trkpt lat="51.568936" lon="7.229685">
        <ele>47.738005</ele>
        <time>2025-08-12T13:15:25.615Z</time>
      </trkpt>
      <trkpt lat="51.568979" lon="7.230042">
        <ele>47.675375</ele>
        <time>2025-08-12T13:15:29.556Z</time>
      </trkpt>
      <trkpt lat="51.569154" lon="7.230607">
        <ele>47.566653</ele>
        <time>2025-08-12T13:15:36.196Z</time>
      </trkpt>
      <trkpt lat="51.569192" lon="7.230875">
        <ele>47.519309</ele>
        <time>2025-08-12T13:15:39.022Z</time>
      </trkpt>
      <trkpt lat="51.569194" lon="7.231048">
        <ele>47.489509</ele>
        <time>2025-08-12T13:15:40.769Z</time>
      </trkpt>
      <trkpt lat="51.569188" lon="7.231113">
        <ele>47.478191</ele>
        <time>2025-08-12T13:15:41.432Z</time>
      </trkpt>
      <trkpt lat="51.569270" lon="7.231282">
        <ele>47.441266</ele>
        <time>2025-08-12T13:15:43.571Z</time>
      </trkpt>
      <trkpt lat="51.569331" lon="7.231297">
        <ele>47.424167</ele>
        <time>2025-08-12T13:15:44.567Z</time>
      </trkpt>
      <trkpt lat="51.569333" lon="7.231336">
        <ele>47.417428</ele>
        <time>2025-08-12T13:15:44.987Z</time>
      </trkpt>
      <trkpt lat="51.569349" lon="7.231477">
        <ele>47.385197</ele>
        <time>2025-08-12T13:15:46.591Z</time>
      </trkpt>
      <trkpt lat="51.569353" lon="7.231511">
        <ele>47.375500</ele>
        <time>2025-08-12T13:15:47.199Z</time>
      </trkpt>
      <trkpt lat="51.568687" lon="7.231687">
        <ele>47.071186</ele>
        <time>2025-08-12T13:16:05.720Z</time>
      </trkpt>
      <trkpt lat="51.568654" lon="7.231740">
        <ele>47.050162</ele>
        <time>2025-08-12T13:16:07.014Z</time>
      </trkpt>
      <trkpt lat="51.568666" lon="7.231841">
        <ele>47.021343</ele>
        <time>2025-08-12T13:16:08.789Z</time>
      </trkpt>
      <trkpt lat="51.568902" lon="7.232173">
        <ele>46.879991</ele>
        <time>2025-08-12T13:16:17.701Z</time>
      </trkpt>
      <trkpt lat="51.569063" lon="7.232508">
        <ele>46.761314</ele>
        <time>2025-08-12T13:16:25.430Z</time>
      </trkpt>
      <trkpt lat="51.569151" lon="7.232637">
        <ele>46.707635</ele>
        <time>2025-08-12T13:16:28.990Z</time>
      </trkpt>
      <trkpt lat="51.570137" lon="7.233793">
        <ele>46.772618</ele>
        <time>2025-08-12T13:17:07.512Z</time>
      </trkpt>
      <trkpt lat="51.570472" lon="7.234246">
        <ele>46.853502</ele>
        <time>2025-08-12T13:17:20.930Z</time>
      </trkpt>
      <trkpt lat="51.570800" lon="7.234734">
        <ele>46.908393</ele>
        <time>2025-08-12T13:17:33.963Z</time>
      </trkpt>
      <trkpt lat="51.571103" lon="7.235252">
        <ele>46.760293</ele>
        <time>2025-08-12T13:17:46.607Z</time>
      </trkpt>
      <trkpt lat="51.571419" lon="7.235838">
        <ele>46.598766</ele>
        <time>2025-08-12T13:18:00.256Z</time>
      </trkpt>
      <trkpt lat="51.571930" lon="7.236937">
        <ele>46.329474</ele>
        <time>2025-08-12T13:18:24.893Z</time>
      </trkpt>
      <trkpt lat="51.572259" lon="7.237864">
        <ele>46.448804</ele>
        <time>2025-08-12T13:18:45.129Z</time>
      </trkpt>
      <trkpt lat="51.572314" lon="7.238037">
        <ele>46.470526</ele>
        <time>2025-08-12T13:18:48.830Z</time>
      </trkpt>
      <trkpt lat="51.572555" lon="7.238812">
        <ele>46.567397</ele>
        <time>2025-08-12T13:19:05.566Z</time>
      </trkpt>
      <trkpt lat="51.572778" lon="7.239618">
        <ele>46.653528</ele>
        <time>2025-08-12T13:19:22.442Z</time>
      </trkpt>
      <trkpt lat="51.573486" lon="7.242469">
        <ele>46.699607</ele>
        <time>2025-08-12T13:20:00.717Z</time>
      </trkpt>
      <trkpt lat="51.573719" lon="7.243236">
        <ele>46.560370</ele>
        <time>2025-08-12T13:20:10.934Z</time>
      </trkpt>
      <trkpt lat="51.574060" lon="7.244234">
        <ele>46.374625</ele>
        <time>2025-08-12T13:20:24.319Z</time>
      </trkpt>
      <trkpt lat="51.575240" lon="7.247346">
        <ele>45.684211</ele>
        <time>2025-08-12T13:21:07.237Z</time>
      </trkpt>
      <trkpt lat="51.575491" lon="7.248202">
        <ele>45.719707</ele>
        <time>2025-08-12T13:21:18.532Z</time>
      </trkpt>
      <trkpt lat="51.575932" lon="7.249967">
        <ele>45.884465</ele>
        <time>2025-08-12T13:21:42.777Z</time>
      </trkpt>
      <trkpt lat="51.576201" lon="7.250779">
        <ele>46.495702</ele>
        <time>2025-08-12T13:21:55.624Z</time>
      </trkpt>
      <trkpt lat="51.576563" lon="7.251504">
        <ele>47.113477</ele>
        <time>2025-08-12T13:22:09.494Z</time>
      </trkpt>
      <trkpt lat="51.576964" lon="7.252006">
        <ele>47.656529</ele>
        <time>2025-08-12T13:22:23.087Z</time>
      </trkpt>
      <trkpt lat="51.577057" lon="7.252124">
        <ele>47.802533</ele>
        <time>2025-08-12T13:22:26.318Z</time>
      </trkpt>
      <trkpt lat="51.577252" lon="7.252333">
        <ele>48.117657</ele>
        <time>2025-08-12T13:22:32.636Z</time>
      </trkpt>
      <trkpt lat="51.577753" lon="7.252630">
        <ele>48.835762</ele>
        <time>2025-08-12T13:22:47.101Z</time>
      </trkpt>
      <trkpt lat="51.578117" lon="7.252983">
        <ele>49.407368</ele>
        <time>2025-08-12T13:22:57.349Z</time>
      </trkpt>
      <trkpt lat="51.578314" lon="7.253195">
        <ele>49.726119</ele>
        <time>2025-08-12T13:23:02.680Z</time>
      </trkpt>
      <trkpt lat="51.578439" lon="7.253215">
        <ele>49.895070</ele>
        <time>2025-08-12T13:23:05.345Z</time>
      </trkpt>
      <trkpt lat="51.578844" lon="7.253288">
        <ele>50.186098</ele>
        <time>2025-08-12T13:23:13.227Z</time>
      </trkpt>
      <trkpt lat="51.579435" lon="7.253643">
        <ele>50.344483</ele>
        <time>2025-08-12T13:23:25.737Z</time>
      </trkpt>
      <trkpt lat="51.580678" lon="7.254367">
        <ele>50.786693</ele>
        <time>2025-08-12T13:23:52.538Z</time>
      </trkpt>
      <trkpt lat="51.581230" lon="7.254732">
        <ele>51.105705</ele>
        <time>2025-08-12T13:24:06.131Z</time>
      </trkpt>
      <trkpt lat="51.581606" lon="7.255065">
        <ele>51.335124</ele>
        <time>2025-08-12T13:24:15.989Z</time>
      </trkpt>
      <trkpt lat="51.581753" lon="7.255235">
        <ele>51.431889</ele>
        <time>2025-08-12T13:24:20.148Z</time>
      </trkpt>
      <trkpt lat="51.581992" lon="7.255531">
        <ele>51.534374</ele>
        <time>2025-08-12T13:24:26.812Z</time>
      </trkpt>
      <trkpt lat="51.582177" lon="7.255834">
        <ele>51.518974</ele>
        <time>2025-08-12T13:24:32.446Z</time>
      </trkpt>
      <trkpt lat="51.582456" lon="7.256374">
        <ele>51.493514</ele>
        <time>2025-08-12T13:24:41.195Z</time>
      </trkpt>
      <trkpt lat="51.582679" lon="7.256931">
        <ele>51.469493</ele>
        <time>2025-08-12T13:24:49.039Z</time>
      </trkpt>
      <trkpt lat="51.582824" lon="7.257405">
        <ele>51.450339</ele>
        <time>2025-08-12T13:24:55.206Z</time>
      </trkpt>
      <trkpt lat="51.582951" lon="7.257924">
        <ele>51.421103</ele>
        <time>2025-08-12T13:25:01.712Z</time>
      </trkpt>
      <trkpt lat="51.583047" lon="7.258507">
        <ele>51.360579</ele>
        <time>2025-08-12T13:25:08.804Z</time>
      </trkpt>
      <trkpt lat="51.583109" lon="7.259150">
        <ele>51.295281</ele>
        <time>2025-08-12T13:25:16.650Z</time>
      </trkpt>
      <trkpt lat="51.583112" lon="7.260080">
        <ele>51.201953</ele>
        <time>2025-08-12T13:25:27.972Z</time>
      </trkpt>
      <trkpt lat="51.583030" lon="7.260831">
        <ele>51.168602</ele>
        <time>2025-08-12T13:25:37.339Z</time>
      </trkpt>
      <trkpt lat="51.582889" lon="7.261543">
        <ele>51.261300</ele>
        <time>2025-08-12T13:25:46.697Z</time>
      </trkpt>
      <trkpt lat="51.582725" lon="7.262125">
        <ele>51.340572</ele>
        <time>2025-08-12T13:25:54.833Z</time>
      </trkpt>
      <trkpt lat="51.582018" lon="7.263939">
        <ele>51.554643</ele>
        <time>2025-08-12T13:26:23.128Z</time>
      </trkpt>
      <trkpt lat="51.581884" lon="7.264479">
        <ele>51.590459</ele>
        <time>2025-08-12T13:26:30.508Z</time>
      </trkpt>
      <trkpt lat="51.581809" lon="7.265024">
        <ele>51.624841</ele>
        <time>2025-08-12T13:26:37.351Z</time>
      </trkpt>
      <trkpt lat="51.581784" lon="7.265700">
        <ele>51.666553</ele>
        <time>2025-08-12T13:26:45.509Z</time>
      </trkpt>
      <trkpt lat="51.581820" lon="7.266211">
        <ele>51.691392</ele>
        <time>2025-08-12T13:26:51.646Z</time>
      </trkpt>
      <trkpt lat="51.581946" lon="7.266847">
        <ele>51.715088</ele>
        <time>2025-08-12T13:26:59.655Z</time>
      </trkpt>
      <trkpt lat="51.584646" lon="7.275779">
        <ele>52.069742</ele>
        <time>2025-08-12T13:29:04.031Z</time>
      </trkpt>
      <trkpt lat="51.584950" lon="7.276706">
        <ele>52.109764</ele>
        <time>2025-08-12T13:29:16.847Z</time>
      </trkpt>
      <trkpt lat="51.585178" lon="7.277522">
        <ele>52.147274</ele>
        <time>2025-08-12T13:29:27.839Z</time>
      </trkpt>
      <trkpt lat="51.585647" lon="7.279075">
        <ele>52.223376</ele>
        <time>2025-08-12T13:29:49.339Z</time>
      </trkpt>
      <trkpt lat="51.586555" lon="7.282078">
        <ele>52.583695</ele>
        <time>2025-08-12T13:30:32.087Z</time>
      </trkpt>
      <trkpt lat="51.586827" lon="7.282962">
        <ele>52.705981</ele>
        <time>2025-08-12T13:30:44.258Z</time>
      </trkpt>
      <trkpt lat="51.587047" lon="7.283552">
        <ele>52.791280</ele>
        <time>2025-08-12T13:30:53.158Z</time>
      </trkpt>
      <trkpt lat="51.587181" lon="7.283833">
        <ele>52.835191</ele>
        <time>2025-08-12T13:30:57.742Z</time>
      </trkpt>
      <trkpt lat="51.587315" lon="7.284122">
        <ele>52.879893</ele>
        <time>2025-08-12T13:31:02.373Z</time>
      </trkpt>
      <trkpt lat="51.587681" lon="7.284693">
        <ele>52.966134</ele>
        <time>2025-08-12T13:31:12.899Z</time>
      </trkpt>
      <trkpt lat="51.587892" lon="7.284956">
        <ele>53.011271</ele>
        <time>2025-08-12T13:31:18.625Z</time>
      </trkpt>
      <trkpt lat="51.589923" lon="7.287095">
        <ele>53.422814</ele>
        <time>2025-08-12T13:32:07.482Z</time>
      </trkpt>
      <trkpt lat="51.589951" lon="7.287125">
        <ele>53.428528</ele>
        <time>2025-08-12T13:32:08.212Z</time>
      </trkpt>
      <trkpt lat="51.590100" lon="7.287260">
        <ele>53.457573</ele>
        <time>2025-08-12T13:32:11.465Z</time>
      </trkpt>
      <trkpt lat="51.590521" lon="7.287499">
        <ele>53.607539</ele>
        <time>2025-08-12T13:32:20.099Z</time>
      </trkpt>
      <trkpt lat="51.590748" lon="7.287662">
        <ele>53.721616</ele>
        <time>2025-08-12T13:32:25.001Z</time>
      </trkpt>
      <trkpt lat="51.591049" lon="7.287954">
        <ele>53.882907</ele>
        <time>2025-08-12T13:32:32.136Z</time>
      </trkpt>
      <trkpt lat="51.591373" lon="7.288404">
        <ele>54.079308</ele>
        <time>2025-08-12T13:32:40.580Z</time>
      </trkpt>
      <trkpt lat="51.591550" lon="7.288556">
        <ele>54.171379</ele>
        <time>2025-08-12T13:32:44.374Z</time>
      </trkpt>
      <trkpt lat="51.591793" lon="7.288674">
        <ele>54.287866</ele>
        <time>2025-08-12T13:32:49.219Z</time>
      </trkpt>
      <trkpt lat="51.591857" lon="7.288725">
        <ele>54.319629</ele>
        <time>2025-08-12T13:32:50.605Z</time>
      </trkpt>
      <trkpt lat="51.592067" lon="7.288889">
        <ele>54.406400</ele>
        <time>2025-08-12T13:32:55.179Z</time>
      </trkpt>
      <trkpt lat="51.592339" lon="7.289264">
        <ele>54.539538</ele>
        <time>2025-08-12T13:33:02.299Z</time>
      </trkpt>
      <trkpt lat="51.592550" lon="7.289685">
        <ele>54.664465</ele>
        <time>2025-08-12T13:33:09.140Z</time>
      </trkpt>
      <trkpt lat="51.592772" lon="7.289973">
        <ele>54.770462</ele>
        <time>2025-08-12T13:33:14.800Z</time>
      </trkpt>
      <trkpt lat="51.592943" lon="7.290088">
        <ele>54.839357</ele>
        <time>2025-08-12T13:33:18.299Z</time>
      </trkpt>
      <trkpt lat="51.593397" lon="7.290265">
        <ele>54.995741</ele>
        <time>2025-08-12T13:33:26.634Z</time>
      </trkpt>
      <trkpt lat="51.593578" lon="7.290419">
        <ele>55.026587</ele>
        <time>2025-08-12T13:33:30.321Z</time>
      </trkpt>
      <trkpt lat="51.593730" lon="7.290648">
        <ele>55.057954</ele>
        <time>2025-08-12T13:33:34.146Z</time>
      </trkpt>
      <trkpt lat="51.594048" lon="7.291324">
        <ele>55.137321</ele>
        <time>2025-08-12T13:33:44.091Z</time>
      </trkpt>
      <trkpt lat="51.594116" lon="7.291402">
        <ele>55.149902</ele>
        <time>2025-08-12T13:33:45.646Z</time>
      </trkpt>
      <trkpt lat="51.594234" lon="7.291498">
        <ele>55.169823</ele>
        <time>2025-08-12T13:33:48.071Z</time>
      </trkpt>
      <trkpt lat="51.594345" lon="7.291540">
        <ele>55.187003</ele>
        <time>2025-08-12T13:33:50.143Z</time>
      </trkpt>
      <trkpt lat="51.594682" lon="7.291486">
        <ele>55.238029</ele>
        <time>2025-08-12T13:33:56.132Z</time>
      </trkpt>
      <trkpt lat="51.594797" lon="7.291499">
        <ele>55.253479</ele>
        <time>2025-08-12T13:33:58.242Z</time>
      </trkpt>
      <trkpt lat="51.595045" lon="7.291557">
        <ele>55.123024</ele>
        <time>2025-08-12T13:34:02.890Z</time>
      </trkpt>
      <trkpt lat="51.595248" lon="7.291694">
        <ele>55.008439</ele>
        <time>2025-08-12T13:34:07.086Z</time>
      </trkpt>
      <trkpt lat="51.595345" lon="7.291810">
        <ele>54.945536</ele>
        <time>2025-08-12T13:34:09.353Z</time>
      </trkpt>
      <trkpt lat="51.595386" lon="7.291910">
        <ele>54.906789</ele>
        <time>2025-08-12T13:34:10.685Z</time>
      </trkpt>
      <trkpt lat="51.595509" lon="7.292202">
        <ele>54.792701</ele>
        <time>2025-08-12T13:34:14.529Z</time>
      </trkpt>
      <trkpt lat="51.595813" lon="7.292615">
        <ele>54.585626</ele>
        <time>2025-08-12T13:34:21.034Z</time>
      </trkpt>
      <trkpt lat="51.596000" lon="7.293044">
        <ele>54.416151</ele>
        <time>2025-08-12T13:34:26.064Z</time>
      </trkpt>
      <trkpt lat="51.596061" lon="7.293355">
        <ele>54.306070</ele>
        <time>2025-08-12T13:34:29.118Z</time>
      </trkpt>
      <trkpt lat="51.596129" lon="7.293991">
        <ele>53.976510</ele>
        <time>2025-08-12T13:34:35.205Z</time>
      </trkpt>
      <trkpt lat="51.596170" lon="7.294475">
        <ele>53.727060</ele>
        <time>2025-08-12T13:34:40.037Z</time>
      </trkpt>
      <trkpt lat="51.596449" lon="7.295131">
        <ele>53.321071</ele>
        <time>2025-08-12T13:34:48.463Z</time>
      </trkpt>
      <trkpt lat="51.596691" lon="7.295812">
        <ele>52.920429</ele>
        <time>2025-08-12T13:34:56.943Z</time>
      </trkpt>
      <trkpt lat="51.596797" lon="7.296210">
        <ele>52.888353</ele>
        <time>2025-08-12T13:35:01.779Z</time>
      </trkpt>
      <trkpt lat="51.596806" lon="7.296614">
        <ele>52.959174</ele>
        <time>2025-08-12T13:35:06.251Z</time>
      </trkpt>
      <trkpt lat="51.596793" lon="7.296932">
        <ele>53.015003</ele>
        <time>2025-08-12T13:35:10.069Z</time>
      </trkpt>
      <trkpt lat="51.596761" lon="7.297099">
        <ele>53.045620</ele>
        <time>2025-08-12T13:35:12.224Z</time>
      </trkpt>
      <trkpt lat="51.596642" lon="7.297386">
        <ele>53.106069</ele>
        <time>2025-08-12T13:35:16.445Z</time>
      </trkpt>
      <trkpt lat="51.596491" lon="7.297567">
        <ele>53.159162</ele>
        <time>2025-08-12T13:35:20.206Z</time>
      </trkpt>
      <trkpt lat="51.596095" lon="7.297800">
        <ele>53.278067</ele>
        <time>2025-08-12T13:35:28.692Z</time>
      </trkpt>
      <trkpt lat="51.595927" lon="7.298008">
        <ele>53.337837</ele>
        <time>2025-08-12T13:35:32.908Z</time>
      </trkpt>
      <trkpt lat="51.595847" lon="7.298159">
        <ele>53.342737</ele>
        <time>2025-08-12T13:35:35.318Z</time>
      </trkpt>
      <trkpt lat="51.595741" lon="7.298479">
        <ele>53.331262</ele>
        <time>2025-08-12T13:35:39.664Z</time>
      </trkpt>
      <trkpt lat="51.595701" lon="7.298683">
        <ele>53.324492</ele>
        <time>2025-08-12T13:35:42.229Z</time>
      </trkpt>
      <trkpt lat="51.595697" lon="7.299122">
        <ele>53.310599</ele>
        <time>2025-08-12T13:35:47.401Z</time>
      </trkpt>
      <trkpt lat="51.595757" lon="7.299484">
        <ele>53.298743</ele>
        <time>2025-08-12T13:35:51.712Z</time>
      </trkpt>
      <trkpt lat="51.595814" lon="7.299650">
        <ele>53.292741</ele>
        <time>2025-08-12T13:35:53.805Z</time>
      </trkpt>
      <trkpt lat="51.595981" lon="7.299943">
        <ele>53.280158</ele>
        <time>2025-08-12T13:35:58.010Z</time>
      </trkpt>
      <trkpt lat="51.596079" lon="7.300055">
        <ele>53.274035</ele>
        <time>2025-08-12T13:36:00.056Z</time>
      </trkpt>
      <trkpt lat="51.596542" lon="7.300364">
        <ele>53.226592</ele>
        <time>2025-08-12T13:36:08.244Z</time>
      </trkpt>
      <trkpt lat="51.596839" lon="7.300741">
        <ele>53.148529</ele>
        <time>2025-08-12T13:36:14.352Z</time>
      </trkpt>
      <trkpt lat="51.597075" lon="7.301050">
        <ele>53.085744</ele>
        <time>2025-08-12T13:36:19.204Z</time>
      </trkpt>
      <trkpt lat="51.597057" lon="7.300987">
        <ele>53.076854</ele>
        <time>2025-08-12T13:36:20.404Z</time>
      </trkpt>
      <trkpt lat="51.597029" lon="7.300890">
        <ele>53.063141</ele>
        <time>2025-08-12T13:36:22.285Z</time>
      </trkpt>
      <trkpt lat="51.596989" lon="7.300769">
        <ele>53.045567</ele>
        <time>2025-08-12T13:36:24.715Z</time>
      </trkpt>
      <trkpt lat="51.596702" lon="7.299978">
        <ele>52.928122</ele>
        <time>2025-08-12T13:36:42.254Z</time>
      </trkpt>
      <trkpt lat="51.596590" lon="7.299636">
        <ele>52.913876</ele>
        <time>2025-08-12T13:36:50.129Z</time>
      </trkpt>
      <trkpt lat="51.596569" lon="7.299501">
        <ele>53.002778</ele>
        <time>2025-08-12T13:36:52.878Z</time>
      </trkpt>
      <trkpt lat="51.596935" lon="7.299790">
        <ele>53.421994</ele>
        <time>2025-08-12T13:37:06.131Z</time>
      </trkpt>
      <trkpt lat="51.597688" lon="7.300517">
        <ele>54.324927</ele>
        <time>2025-08-12T13:37:37.211Z</time>
      </trkpt>
      <trkpt lat="51.598196" lon="7.301006">
        <ele>54.817567</ele>
        <time>2025-08-12T13:37:57.389Z</time>
      </trkpt>
      <trkpt lat="51.599117" lon="7.301779">
        <ele>55.264456</ele>
        <time>2025-08-12T13:38:29.582Z</time>
      </trkpt>
      <trkpt lat="51.599396" lon="7.302070">
        <ele>55.407489</ele>
        <time>2025-08-12T13:38:39.404Z</time>
      </trkpt>
      <trkpt lat="51.599590" lon="7.302340">
        <ele>55.519112</ele>
        <time>2025-08-12T13:38:46.979Z</time>
      </trkpt>
      <trkpt lat="51.601498" lon="7.304616">
        <ele>56.864660</ele>
        <time>2025-08-12T13:39:39.280Z</time>
      </trkpt>
      <trkpt lat="51.602127" lon="7.305459">
        <ele>57.522960</ele>
        <time>2025-08-12T13:39:58.480Z</time>
      </trkpt>
      <trkpt lat="51.602471" lon="7.305923">
        <ele>57.865820</ele>
        <time>2025-08-12T13:40:09.222Z</time>
      </trkpt>
      <trkpt lat="51.602909" lon="7.306347">
        <ele>58.139686</ele>
        <time>2025-08-12T13:40:20.561Z</time>
      </trkpt>
      <trkpt lat="51.603266" lon="7.306777">
        <ele>58.378599</ele>
        <time>2025-08-12T13:40:30.273Z</time>
      </trkpt>
      <trkpt lat="51.603450" lon="7.306962">
        <ele>58.494844</ele>
        <time>2025-08-12T13:40:34.912Z</time>
      </trkpt>
      <trkpt lat="51.603543" lon="7.307003">
        <ele>58.546514</ele>
        <time>2025-08-12T13:40:37.278Z</time>
      </trkpt>
      <trkpt lat="51.603963" lon="7.307468">
        <ele>58.792748</ele>
        <time>2025-08-12T13:40:50.505Z</time>
      </trkpt>
      <trkpt lat="51.604180" lon="7.307741">
        <ele>58.788498</ele>
        <time>2025-08-12T13:40:56.209Z</time>
      </trkpt>
      <trkpt lat="51.605661" lon="7.309307">
        <ele>58.652313</ele>
        <time>2025-08-12T13:41:30.579Z</time>
      </trkpt>
      <trkpt lat="51.605800" lon="7.309515">
        <ele>58.579926</ele>
        <time>2025-08-12T13:41:34.293Z</time>
      </trkpt>
      <trkpt lat="51.605873" lon="7.309567">
        <ele>58.549475</ele>
        <time>2025-08-12T13:41:35.841Z</time>
      </trkpt>
      <trkpt lat="51.605951" lon="7.309611">
        <ele>58.517948</ele>
        <time>2025-08-12T13:41:37.462Z</time>
      </trkpt>
      <trkpt lat="51.606054" lon="7.309703">
        <ele>58.473016</ele>
        <time>2025-08-12T13:41:39.759Z</time>
      </trkpt>
      <trkpt lat="51.606280" lon="7.310000">
        <ele>58.361735</ele>
        <time>2025-08-12T13:41:45.460Z</time>
      </trkpt>
      <trkpt lat="51.607824" lon="7.311660">
        <ele>57.379740</ele>
        <time>2025-08-12T13:42:19.475Z</time>
      </trkpt>
      <trkpt lat="51.608710" lon="7.312632">
        <ele>57.088248</ele>
        <time>2025-08-12T13:42:39.136Z</time>
      </trkpt>
      <trkpt lat="51.610436" lon="7.314712">
        <ele>57.775336</ele>
        <time>2025-08-12T13:43:27.906Z</time>
      </trkpt>
      <trkpt lat="51.610714" lon="7.315010">
        <ele>57.863812</ele>
        <time>2025-08-12T13:43:34.977Z</time>
      </trkpt>
      <trkpt lat="51.611914" lon="7.316507">
        <ele>58.021324</ele>
        <time>2025-08-12T13:44:04.192Z</time>
      </trkpt>
      <trkpt lat="51.612389" lon="7.317056">
        <ele>57.997636</ele>
        <time>2025-08-12T13:44:15.652Z</time>
      </trkpt>
      <trkpt lat="51.613573" lon="7.318292">
        <ele>58.417858</ele>
        <time>2025-08-12T13:44:45.591Z</time>
      </trkpt>
      <trkpt lat="51.615623" lon="7.320290">
        <ele>59.757005</ele>
        <time>2025-08-12T13:45:38.377Z</time>
      </trkpt>
      <trkpt lat="51.615946" lon="7.320883">
        <ele>60.103662</ele>
        <time>2025-08-12T13:45:49.695Z</time>
      </trkpt>
      <trkpt lat="51.616081" lon="7.320907">
        <ele>60.208270</ele>
        <time>2025-08-12T13:45:52.476Z</time>
      </trkpt>
      <trkpt lat="51.616177" lon="7.320988">
        <ele>60.291741</ele>
        <time>2025-08-12T13:45:54.728Z</time>
      </trkpt>
      <trkpt lat="51.616235" lon="7.321101">
        <ele>60.361855</ele>
        <time>2025-08-12T13:45:56.588Z</time>
      </trkpt>
      <trkpt lat="51.616575" lon="7.322831">
        <ele>61.229650</ele>
        <time>2025-08-12T13:46:20.143Z</time>
      </trkpt>
      <trkpt lat="51.616588" lon="7.322971">
        <ele>61.307351</ele>
        <time>2025-08-12T13:46:21.964Z</time>
      </trkpt>
      <trkpt lat="51.616574" lon="7.323172">
        <ele>61.437240</ele>
        <time>2025-08-12T13:46:24.578Z</time>
      </trkpt>
      <trkpt lat="51.616415" lon="7.324240">
        <ele>62.142535</ele>
        <time>2025-08-12T13:46:39.274Z</time>
      </trkpt>
      <trkpt lat="51.616389" lon="7.324290">
        <ele>62.184417</ele>
        <time>2025-08-12T13:46:40.178Z</time>
      </trkpt>
      <trkpt lat="51.616370" lon="7.324330">
        <ele>62.216759</ele>
        <time>2025-08-12T13:46:40.896Z</time>
      </trkpt>
      <trkpt lat="51.616216" lon="7.324411">
        <ele>62.384313</ele>
        <time>2025-08-12T13:46:44.611Z</time>
      </trkpt>
      <trkpt lat="51.616036" lon="7.324492">
        <ele>62.577608</ele>
        <time>2025-08-12T13:46:48.973Z</time>
      </trkpt>
      <trkpt lat="51.615939" lon="7.324604">
        <ele>62.701050</ele>
        <time>2025-08-12T13:46:51.771Z</time>
      </trkpt>
      <trkpt lat="51.615930" lon="7.324708">
        <ele>62.768483</ele>
        <time>2025-08-12T13:46:53.288Z</time>
      </trkpt>
      <trkpt lat="51.615980" lon="7.324956">
        <ele>62.935933</ele>
        <time>2025-08-12T13:46:57.035Z</time>
      </trkpt>
      <trkpt lat="51.616054" lon="7.325294">
        <ele>63.096964</ele>
        <time>2025-08-12T13:47:02.195Z</time>
      </trkpt>
      <trkpt lat="51.616251" lon="7.326187">
        <ele>62.589096</ele>
        <time>2025-08-12T13:47:14.395Z</time>
      </trkpt>
      <trkpt lat="51.616370" lon="7.326129">
        <ele>62.481790</ele>
        <time>2025-08-12T13:47:17.222Z</time>
      </trkpt>
      <trkpt lat="51.616463" lon="7.326117">
        <ele>62.401267</ele>
        <time>2025-08-12T13:47:19.330Z</time>
      </trkpt>
      <trkpt lat="51.616559" lon="7.326142">
        <ele>62.317336</ele>
        <time>2025-08-12T13:47:21.459Z</time>
      </trkpt>
      <trkpt lat="51.616722" lon="7.326185">
        <ele>62.174781</ele>
        <time>2025-08-12T13:47:24.978Z</time>
      </trkpt>
      <trkpt lat="51.616746" lon="7.326192">
        <ele>62.153731</ele>
        <time>2025-08-12T13:47:25.495Z</time>
      </trkpt>
      <trkpt lat="51.616882" lon="7.326188">
        <ele>62.036334</ele>
        <time>2025-08-12T13:47:28.314Z</time>
      </trkpt>
      <trkpt lat="51.617060" lon="7.325992">
        <ele>61.850233</ele>
        <time>2025-08-12T13:47:32.629Z</time>
      </trkpt>
      <trkpt lat="51.616985" lon="7.325764">
        <ele>61.711962</ele>
        <time>2025-08-12T13:47:35.190Z</time>
      </trkpt>
      <trkpt lat="51.617044" lon="7.325205">
        <ele>61.117863</ele>
        <time>2025-08-12T13:47:40.548Z</time>
      </trkpt>
      <trkpt lat="51.617115" lon="7.324605">
        <ele>60.224902</ele>
        <time>2025-08-12T13:47:46.205Z</time>
      </trkpt>
      <trkpt lat="51.617261" lon="7.324060">
        <ele>59.357144</ele>
        <time>2025-08-12T13:47:51.785Z</time>
      </trkpt>
      <trkpt lat="51.617383" lon="7.323717">
        <ele>58.779248</ele>
        <time>2025-08-12T13:47:55.640Z</time>
      </trkpt>
      <trkpt lat="51.617593" lon="7.323466">
        <ele>58.163512</ele>
        <time>2025-08-12T13:47:59.951Z</time>
      </trkpt>
      <trkpt lat="51.617830" lon="7.323224">
        <ele>57.502790</ele>
        <time>2025-08-12T13:48:04.923Z</time>
      </trkpt>
      <trkpt lat="51.617987" lon="7.323041">
        <ele>57.546376</ele>
        <time>2025-08-12T13:48:08.799Z</time>
      </trkpt>
      <trkpt lat="51.618065" lon="7.323029">
        <ele>57.674905</ele>
        <time>2025-08-12T13:48:10.630Z</time>
      </trkpt>
      <trkpt lat="51.618163" lon="7.323098">
        <ele>57.850350</ele>
        <time>2025-08-12T13:48:13.093Z</time>
      </trkpt>
      <trkpt lat="51.618564" lon="7.323378">
        <ele>58.567288</ele>
        <time>2025-08-12T13:48:25.208Z</time>
      </trkpt>
      <trkpt lat="51.618658" lon="7.323473">
        <ele>58.749325</ele>
        <time>2025-08-12T13:48:28.858Z</time>
      </trkpt>
      <trkpt lat="51.618666" lon="7.323479">
        <ele>58.763800</ele>
        <time>2025-08-12T13:48:29.094Z</time>
      </trkpt>
      <trkpt lat="51.618999" lon="7.323891">
        <ele>59.452603</ele>
        <time>2025-08-12T13:48:41.376Z</time>
      </trkpt>
      <trkpt lat="51.619801" lon="7.324672">
        <ele>60.738074</ele>
        <time>2025-08-12T13:49:09.020Z</time>
      </trkpt>
      <trkpt lat="51.619897" lon="7.324843">
        <ele>60.888198</ele>
        <time>2025-08-12T13:49:12.754Z</time>
      </trkpt>
      <trkpt lat="51.619928" lon="7.325044">
        <ele>61.023063</ele>
        <time>2025-08-12T13:49:15.944Z</time>
      </trkpt>
      <trkpt lat="51.619922" lon="7.325497">
        <ele>61.318115</ele>
        <time>2025-08-12T13:49:22.772Z</time>
      </trkpt>
      <trkpt lat="51.619845" lon="7.325865">
        <ele>61.570992</ele>
        <time>2025-08-12T13:49:28.392Z</time>
      </trkpt>
      <trkpt lat="51.619712" lon="7.326277">
        <ele>61.873376</ele>
        <time>2025-08-12T13:49:34.449Z</time>
      </trkpt>
      <trkpt lat="51.619329" lon="7.327102">
        <ele>62.159005</ele>
        <time>2025-08-12T13:49:46.321Z</time>
      </trkpt>
      <trkpt lat="51.618819" lon="7.328068">
        <ele>62.116281</ele>
        <time>2025-08-12T13:50:02.561Z</time>
      </trkpt>
      <trkpt lat="51.618116" lon="7.329663">
        <ele>61.168869</ele>
        <time>2025-08-12T13:50:26.332Z</time>
      </trkpt>
      <trkpt lat="51.618105" lon="7.329752">
        <ele>61.075884</ele>
        <time>2025-08-12T13:50:27.314Z</time>
      </trkpt>
      <trkpt lat="51.618139" lon="7.329856">
        <ele>60.955449</ele>
        <time>2025-08-12T13:50:28.561Z</time>
      </trkpt>
      <trkpt lat="51.618240" lon="7.329977">
        <ele>60.747712</ele>
        <time>2025-08-12T13:50:30.669Z</time>
      </trkpt>
      <trkpt lat="51.618395" lon="7.330151">
        <ele>60.435910</ele>
        <time>2025-08-12T13:50:35.485Z</time>
      </trkpt>
      <trkpt lat="51.618452" lon="7.330176">
        <ele>60.338418</ele>
        <time>2025-08-12T13:50:36.955Z</time>
      </trkpt>
      <trkpt lat="51.618567" lon="7.330113">
        <ele>60.137955</ele>
        <time>2025-08-12T13:50:39.983Z</time>
      </trkpt>
      <trkpt lat="51.618934" lon="7.329422">
        <ele>59.206212</ele>
        <time>2025-08-12T13:50:53.876Z</time>
      </trkpt>
      <trkpt lat="51.619196" lon="7.328854">
        <ele>59.432834</ele>
        <time>2025-08-12T13:51:05.091Z</time>
      </trkpt>
      <trkpt lat="51.619212" lon="7.328818">
        <ele>59.455902</ele>
        <time>2025-08-12T13:51:05.849Z</time>
      </trkpt>
      <trkpt lat="51.619272" lon="7.328799">
        <ele>59.507216</ele>
        <time>2025-08-12T13:51:07.557Z</time>
      </trkpt>
      <trkpt lat="51.619222" lon="7.328983">
        <ele>59.611865</ele>
        <time>2025-08-12T13:51:10.106Z</time>
      </trkpt>
      <trkpt lat="51.618925" lon="7.329723">
        <ele>60.070968</ele>
        <time>2025-08-12T13:51:25.331Z</time>
      </trkpt>
      <trkpt lat="51.618669" lon="7.330264">
        <ele>60.425378</ele>
        <time>2025-08-12T13:51:39.142Z</time>
      </trkpt>
      <trkpt lat="51.618644" lon="7.330389">
        <ele>60.493803</ele>
        <time>2025-08-12T13:51:41.574Z</time>
      </trkpt>
      <trkpt lat="51.618665" lon="7.330524">
        <ele>60.566317</ele>
        <time>2025-08-12T13:51:44.008Z</time>
      </trkpt>
      <trkpt lat="51.618599" lon="7.330689">
        <ele>60.665874</ele>
        <time>2025-08-12T13:51:47.474Z</time>
      </trkpt>
      <trkpt lat="51.618714" lon="7.330890">
        <ele>60.800107</ele>
        <time>2025-08-12T13:51:52.151Z</time>
      </trkpt>
      <trkpt lat="51.618863" lon="7.331254">
        <ele>61.014224</ele>
        <time>2025-08-12T13:51:58.879Z</time>
      </trkpt>
      <trkpt lat="51.618960" lon="7.331561">
        <ele>61.183393</ele>
        <time>2025-08-12T13:52:03.187Z</time>
      </trkpt>
      <trkpt lat="51.619080" lon="7.331996">
        <ele>61.417161</ele>
        <time>2025-08-12T13:52:08.702Z</time>
      </trkpt>
      <trkpt lat="51.619213" lon="7.332508">
        <ele>61.689726</ele>
        <time>2025-08-12T13:52:14.656Z</time>
      </trkpt>
      <trkpt lat="51.619395" lon="7.333099">
        <ele>62.013708</ele>
        <time>2025-08-12T13:52:21.564Z</time>
      </trkpt>
      <trkpt lat="51.619450" lon="7.333287">
        <ele>62.159462</ele>
        <time>2025-08-12T13:52:23.802Z</time>
      </trkpt>
      <trkpt lat="51.619553" lon="7.333583">
        <ele>62.427675</ele>
        <time>2025-08-12T13:52:27.848Z</time>
      </trkpt>
      <trkpt lat="51.619619" lon="7.333909">
        <ele>62.698713</ele>
        <time>2025-08-12T13:52:32.287Z</time>
      </trkpt>
      <trkpt lat="51.619662" lon="7.334598">
        <ele>63.246072</ele>
        <time>2025-08-12T13:52:41.899Z</time>
      </trkpt>
      <trkpt lat="51.619578" lon="7.335230">
        <ele>63.756950</ele>
        <time>2025-08-12T13:52:52.820Z</time>
      </trkpt>
      <trkpt lat="51.619378" lon="7.335861">
        <ele>64.316954</ele>
        <time>2025-08-12T13:53:04.233Z</time>
      </trkpt>
      <trkpt lat="51.619116" lon="7.336395">
        <ele>65.022133</ele>
        <time>2025-08-12T13:53:14.626Z</time>
      </trkpt>
      <trkpt lat="51.618539" lon="7.337402">
        <ele>66.452883</ele>
        <time>2025-08-12T13:53:35.557Z</time>
      </trkpt>
      <trkpt lat="51.618163" lon="7.338062">
        <ele>67.372085</ele>
        <time>2025-08-12T13:53:49.306Z</time>
      </trkpt>
      <trkpt lat="51.617998" lon="7.338413">
        <ele>67.581356</ele>
        <time>2025-08-12T13:53:55.533Z</time>
      </trkpt>
      <trkpt lat="51.617707" lon="7.339143">
        <ele>67.993718</ele>
        <time>2025-08-12T13:54:06.915Z</time>
      </trkpt>
      <trkpt lat="51.617518" lon="7.339776">
        <ele>68.327596</ele>
        <time>2025-08-12T13:54:15.645Z</time>
      </trkpt>
      <trkpt lat="51.617308" lon="7.340800">
        <ele>68.724237</ele>
        <time>2025-08-12T13:54:28.539Z</time>
      </trkpt>
      <trkpt lat="51.617233" lon="7.341279">
        <ele>68.698594</ele>
        <time>2025-08-12T13:54:34.360Z</time>
      </trkpt>
      <trkpt lat="51.618302" lon="7.341411">
        <ele>68.608959</ele>
        <time>2025-08-12T13:55:06.490Z</time>
      </trkpt>
      <trkpt lat="51.619738" lon="7.341587">
        <ele>67.157665</ele>
        <time>2025-08-12T13:55:46.138Z</time>
      </trkpt>
      <trkpt lat="51.621108" lon="7.341754">
        <ele>65.364015</ele>
        <time>2025-08-12T13:56:22.342Z</time>
      </trkpt>
      <trkpt lat="51.621383" lon="7.342071">
        <ele>64.901326</ele>
        <time>2025-08-12T13:56:31.310Z</time>
      </trkpt>
      <trkpt lat="51.621502" lon="7.342175">
        <ele>64.716086</ele>
        <time>2025-08-12T13:56:34.960Z</time>
      </trkpt>
      <trkpt lat="51.621789" lon="7.342240">
        <ele>64.319548</ele>
        <time>2025-08-12T13:56:42.800Z</time>
      </trkpt>
      <trkpt lat="51.621851" lon="7.342384">
        <ele>64.170691</ele>
        <time>2025-08-12T13:56:45.779Z</time>
      </trkpt>
      <trkpt lat="51.621862" lon="7.342489">
        <ele>64.080238</ele>
        <time>2025-08-12T13:56:47.619Z</time>
      </trkpt>
      <trkpt lat="51.621854" lon="7.343337">
        <ele>64.149046</ele>
        <time>2025-08-12T13:57:02.739Z</time>
      </trkpt>
      <trkpt lat="51.621885" lon="7.343766">
        <ele>64.313334</ele>
        <time>2025-08-12T13:57:11.217Z</time>
      </trkpt>
      <trkpt lat="51.622116" lon="7.344732">
        <ele>64.707101</ele>
        <time>2025-08-12T13:57:32.961Z</time>
      </trkpt>
      <trkpt lat="51.622288" lon="7.345006">
        <ele>64.855318</ele>
        <time>2025-08-12T13:57:41.425Z</time>
      </trkpt>
      <trkpt lat="51.622533" lon="7.345076">
        <ele>65.008714</ele>
        <time>2025-08-12T13:57:50.223Z</time>
      </trkpt>
      <trkpt lat="51.624553" lon="7.345406">
        <ele>67.651129</ele>
        <time>2025-08-12T13:59:01.182Z</time>
      </trkpt>
      <trkpt lat="51.624635" lon="7.345448">
        <ele>67.753055</ele>
        <time>2025-08-12T13:59:04.150Z</time>
      </trkpt>
      <trkpt lat="51.624703" lon="7.345527">
        <ele>67.852370</ele>
        <time>2025-08-12T13:59:07.039Z</time>
      </trkpt>
      <trkpt lat="51.624788" lon="7.345726">
        <ele>68.030004</ele>
        <time>2025-08-12T13:59:12.245Z</time>
      </trkpt>
      <trkpt lat="51.625827" lon="7.351036">
        <ele>71.273620</ele>
        <time>2025-08-12T14:01:10.337Z</time>
      </trkpt>
      <trkpt lat="51.625856" lon="7.351152">
        <ele>71.239412</ele>
        <time>2025-08-12T14:01:12.645Z</time>
      </trkpt>
      <trkpt lat="51.626010" lon="7.351453">
        <ele>71.132716</ele>
        <time>2025-08-12T14:01:19.711Z</time>
      </trkpt>
      <trkpt lat="51.626020" lon="7.351907">
        <ele>71.008448</ele>
        <time>2025-08-12T14:01:27.643Z</time>
      </trkpt>
      <trkpt lat="51.626088" lon="7.352101">
        <ele>70.947506</ele>
        <time>2025-08-12T14:01:31.457Z</time>
      </trkpt>
      <trkpt lat="51.626387" lon="7.351705">
        <ele>70.776942</ele>
        <time>2025-08-12T14:01:37.444Z</time>
      </trkpt>
      <trkpt lat="51.626711" lon="7.351353">
        <ele>70.492634</ele>
        <time>2025-08-12T14:01:43.407Z</time>
      </trkpt>
      <trkpt lat="51.627044" lon="7.351075">
        <ele>70.007074</ele>
        <time>2025-08-12T14:01:49.033Z</time>
      </trkpt>
      <trkpt lat="51.627390" lon="7.350861">
        <ele>69.527256</ele>
        <time>2025-08-12T14:01:54.635Z</time>
      </trkpt>
      <trkpt lat="51.627852" lon="7.350658">
        <ele>68.907296</ele>
        <time>2025-08-12T14:02:02.157Z</time>
      </trkpt>
      <trkpt lat="51.629244" lon="7.350154">
        <ele>67.109858</ele>
        <time>2025-08-12T14:02:24.826Z</time>
      </trkpt>
      <trkpt lat="51.631095" lon="7.349490">
        <ele>64.152313</ele>
        <time>2025-08-12T14:02:53.675Z</time>
      </trkpt>
      <trkpt lat="51.631198" lon="7.349451">
        <ele>63.962157</ele>
        <time>2025-08-12T14:02:56.440Z</time>
      </trkpt>
      <trkpt lat="51.633126" lon="7.348749">
        <ele>59.853774</ele>
        <time>2025-08-12T14:03:24.833Z</time>
      </trkpt>
      <trkpt lat="51.635015" lon="7.348042">
        <ele>56.361925</ele>
        <time>2025-08-12T14:03:53.488Z</time>
      </trkpt>
      <trkpt lat="51.635527" lon="7.347849">
        <ele>55.846867</ele>
        <time>2025-08-12T14:04:01.801Z</time>
      </trkpt>
      <trkpt lat="51.636240" lon="7.347431">
        <ele>55.774544</ele>
        <time>2025-08-12T14:04:15.072Z</time>
      </trkpt>
      <trkpt lat="51.636580" lon="7.347190">
        <ele>55.739137</ele>
        <time>2025-08-12T14:04:22.284Z</time>
      </trkpt>
      <trkpt lat="51.636904" lon="7.346957">
        <ele>55.705317</ele>
        <time>2025-08-12T14:04:29.315Z</time>
      </trkpt>
      <trkpt lat="51.637547" lon="7.346403">
        <ele>56.423521</ele>
        <time>2025-08-12T14:04:43.808Z</time>
      </trkpt>
      <trkpt lat="51.638246" lon="7.345665">
        <ele>57.358562</ele>
        <time>2025-08-12T14:05:03.997Z</time>
      </trkpt>
      <trkpt lat="51.638824" lon="7.344968">
        <ele>57.640673</ele>
        <time>2025-08-12T14:05:21.013Z</time>
      </trkpt>
      <trkpt lat="51.638856" lon="7.345008">
        <ele>57.633776</ele>
        <time>2025-08-12T14:05:21.846Z</time>
      </trkpt>
      <trkpt lat="51.639109" lon="7.345325">
        <ele>57.579195</ele>
        <time>2025-08-12T14:05:28.391Z</time>
      </trkpt>
      <trkpt lat="51.639193" lon="7.345418">
        <ele>57.561838</ele>
        <time>2025-08-12T14:05:30.392Z</time>
      </trkpt>
      <trkpt lat="51.639162" lon="7.345583">
        <ele>57.543617</ele>
        <time>2025-08-12T14:05:32.287Z</time>
      </trkpt>
      <trkpt lat="51.639150" lon="7.346132">
        <ele>57.485556</ele>
        <time>2025-08-12T14:05:37.772Z</time>
      </trkpt>
      <trkpt lat="51.639204" lon="7.346684">
        <ele>57.426493</ele>
        <time>2025-08-12T14:05:42.882Z</time>
      </trkpt>
      <trkpt lat="51.639521" lon="7.347884">
        <ele>56.684706</ele>
        <time>2025-08-12T14:05:54.777Z</time>
      </trkpt>
      <trkpt lat="51.640163" lon="7.349096">
        <ele>55.632962</ele>
        <time>2025-08-12T14:06:10.946Z</time>
      </trkpt>
      <trkpt lat="51.641859" lon="7.351876">
        <ele>55.308544</ele>
        <time>2025-08-12T14:06:53.508Z</time>
      </trkpt>
      <trkpt lat="51.642600" lon="7.353085">
        <ele>55.409115</ele>
        <time>2025-08-12T14:07:14.080Z</time>
      </trkpt>
      <trkpt lat="51.643874" lon="7.355169">
        <ele>54.915545</ele>
        <time>2025-08-12T14:08:06.526Z</time>
      </trkpt>
      <trkpt lat="51.644028" lon="7.355349">
        <ele>54.852291</ele>
        <time>2025-08-12T14:08:11.877Z</time>
      </trkpt>
      <trkpt lat="51.644147" lon="7.355341">
        <ele>54.800624</ele>
        <time>2025-08-12T14:08:15.264Z</time>
      </trkpt>
      <trkpt lat="51.646339" lon="7.353855">
        <ele>53.472041</ele>
        <time>2025-08-12T14:09:22.971Z</time>
      </trkpt>
      <trkpt lat="51.646474" lon="7.353790">
        <ele>53.374094</ele>
        <time>2025-08-12T14:09:26.944Z</time>
      </trkpt>
      <trkpt lat="51.646564" lon="7.353305">
        <ele>53.155730</ele>
        <time>2025-08-12T14:09:35.739Z</time>
      </trkpt>
      <trkpt lat="51.646592" lon="7.353668">
        <ele>52.997942</ele>
        <time>2025-08-12T14:09:42.099Z</time>
      </trkpt>
      <trkpt lat="51.646589" lon="7.354440">
        <ele>52.666581</ele>
        <time>2025-08-12T14:09:55.641Z</time>
      </trkpt>
      <trkpt lat="51.646564" lon="7.354857">
        <ele>52.525928</ele>
        <time>2025-08-12T14:10:02.933Z</time>
      </trkpt>
      <trkpt lat="51.646515" lon="7.355256">
        <ele>52.389371</ele>
        <time>2025-08-12T14:10:09.846Z</time>
      </trkpt>
      <trkpt lat="51.646460" lon="7.355497">
        <ele>52.303160</ele>
        <time>2025-08-12T14:10:14.229Z</time>
      </trkpt>
      <trkpt lat="51.646335" lon="7.355956">
        <ele>52.134869</ele>
        <time>2025-08-12T14:10:19.857Z</time>
      </trkpt>
      <trkpt lat="51.645570" lon="7.357923">
        <ele>51.899006</ele>
        <time>2025-08-12T14:10:47.804Z</time>
      </trkpt>
      <trkpt lat="51.645399" lon="7.358337">
        <ele>51.996059</ele>
        <time>2025-08-12T14:10:54.457Z</time>
      </trkpt>
      <trkpt lat="51.645037" lon="7.358975">
        <ele>52.164767</ele>
        <time>2025-08-12T14:11:06.387Z</time>
      </trkpt>
      <trkpt lat="51.644949" lon="7.359131">
        <ele>52.205909</ele>
        <time>2025-08-12T14:11:09.333Z</time>
      </trkpt>
      <trkpt lat="51.644756" lon="7.359748">
        <ele>52.323324</ele>
        <time>2025-08-12T14:11:19.061Z</time>
      </trkpt>
      <trkpt lat="51.641866" lon="7.369544">
        <ele>53.976505</ele>
        <time>2025-08-12T14:13:37.687Z</time>
      </trkpt>
      <trkpt lat="51.641647" lon="7.370938">
        <ele>54.465924</ele>
        <time>2025-08-12T14:13:56.934Z</time>
      </trkpt>
      <trkpt lat="51.641215" lon="7.372197">
        <ele>55.042040</ele>
        <time>2025-08-12T14:14:17.188Z</time>
      </trkpt>
      <trkpt lat="51.640986" lon="7.373274">
        <ele>55.447157</ele>
        <time>2025-08-12T14:14:34.219Z</time>
      </trkpt>
      <trkpt lat="51.640853" lon="7.374401">
        <ele>55.829743</ele>
        <time>2025-08-12T14:14:49.846Z</time>
      </trkpt>
      <trkpt lat="51.640809" lon="7.374804">
        <ele>55.966207</ele>
        <time>2025-08-12T14:14:57.567Z</time>
      </trkpt>
      <trkpt lat="51.640800" lon="7.374867">
        <ele>55.987767</ele>
        <time>2025-08-12T14:14:58.857Z</time>
      </trkpt>
      <trkpt lat="51.640601" lon="7.375961">
        <ele>56.221919</ele>
        <time>2025-08-12T14:15:13.320Z</time>
      </trkpt>
      <trkpt lat="51.640481" lon="7.376319">
        <ele>56.261966</ele>
        <time>2025-08-12T14:15:18.176Z</time>
      </trkpt>
      <trkpt lat="51.640465" lon="7.376398">
        <ele>56.270145</ele>
        <time>2025-08-12T14:15:24.574Z</time>
      </trkpt>
      <trkpt lat="51.640444" lon="7.376488">
        <ele>56.279609</ele>
        <time>2025-08-12T14:15:28.712Z</time>
      </trkpt>
      <trkpt lat="51.640428" lon="7.376567">
        <ele>56.287788</ele>
        <time>2025-08-12T14:15:35.080Z</time>
      </trkpt>
      <trkpt lat="51.640385" lon="7.376827">
        <ele>56.314272</ele>
        <time>2025-08-12T14:15:38.264Z</time>
      </trkpt>
      <trkpt lat="51.640041" lon="7.378573">
        <ele>56.697655</ele>
        <time>2025-08-12T14:16:02.451Z</time>
      </trkpt>
      <trkpt lat="51.639957" lon="7.378743">
        <ele>56.808519</ele>
        <time>2025-08-12T14:16:05.520Z</time>
      </trkpt>
      <trkpt lat="51.639926" lon="7.378865">
        <ele>56.875777</ele>
        <time>2025-08-12T14:16:07.408Z</time>
      </trkpt>
      <trkpt lat="51.639853" lon="7.379407">
        <ele>57.158734</ele>
        <time>2025-08-12T14:16:15.594Z</time>
      </trkpt>
      <trkpt lat="51.639698" lon="7.380020">
        <ele>57.496440</ele>
        <time>2025-08-12T14:16:25.531Z</time>
      </trkpt>
      <trkpt lat="51.639620" lon="7.380222">
        <ele>57.617818</ele>
        <time>2025-08-12T14:16:29.129Z</time>
      </trkpt>
      <trkpt lat="51.639537" lon="7.380847">
        <ele>57.922365</ele>
        <time>2025-08-12T14:16:38.562Z</time>
      </trkpt>
      <trkpt lat="51.639362" lon="7.381725">
        <ele>57.866188</ele>
        <time>2025-08-12T14:16:51.119Z</time>
      </trkpt>
      <trkpt lat="51.638718" lon="7.384831">
        <ele>57.031666</ele>
        <time>2025-08-12T14:17:29.004Z</time>
      </trkpt>
      <trkpt lat="51.638414" lon="7.386156">
        <ele>56.274374</ele>
        <time>2025-08-12T14:17:44.499Z</time>
      </trkpt>
      <trkpt lat="51.637620" lon="7.388988">
        <ele>54.337876</ele>
        <time>2025-08-12T14:18:18.418Z</time>
      </trkpt>
      <trkpt lat="51.637098" lon="7.390427">
        <ele>54.323961</ele>
        <time>2025-08-12T14:18:38.399Z</time>
      </trkpt>
      <trkpt lat="51.636979" lon="7.390818">
        <ele>54.320326</ele>
        <time>2025-08-12T14:18:44.192Z</time>
      </trkpt>
      <trkpt lat="51.636296" lon="7.393605">
        <ele>55.165840</ele>
        <time>2025-08-12T14:19:25.939Z</time>
      </trkpt>
      <trkpt lat="51.635587" lon="7.396365">
        <ele>56.222359</ele>
        <time>2025-08-12T14:20:06.325Z</time>
      </trkpt>
      <trkpt lat="51.635291" lon="7.397569">
        <ele>56.620563</ele>
        <time>2025-08-12T14:20:24.191Z</time>
      </trkpt>
      <trkpt lat="51.635117" lon="7.398135">
        <ele>56.796262</ele>
        <time>2025-08-12T14:20:32.806Z</time>
      </trkpt>
      <trkpt lat="51.634673" lon="7.399894">
        <ele>57.297050</ele>
        <time>2025-08-12T14:20:57.636Z</time>
      </trkpt>
      <trkpt lat="51.633603" lon="7.404982">
        <ele>58.191346</ele>
        <time>2025-08-12T14:22:08.295Z</time>
      </trkpt>
      <trkpt lat="51.633537" lon="7.405299">
        <ele>58.064175</ele>
        <time>2025-08-12T14:22:12.237Z</time>
      </trkpt>
      <trkpt lat="51.633060" lon="7.407792">
        <ele>56.870012</ele>
        <time>2025-08-12T14:22:41.293Z</time>
      </trkpt>
      <trkpt lat="51.632637" lon="7.409808">
        <ele>55.602651</ele>
        <time>2025-08-12T14:23:04.813Z</time>
      </trkpt>
      <trkpt lat="51.632312" lon="7.411541">
        <ele>54.954918</ele>
        <time>2025-08-12T14:23:25.254Z</time>
      </trkpt>
      <trkpt lat="51.631901" lon="7.413950">
        <ele>54.634210</ele>
        <time>2025-08-12T14:23:55.789Z</time>
      </trkpt>
      <trkpt lat="51.631766" lon="7.414585">
        <ele>54.652975</ele>
        <time>2025-08-12T14:24:04.394Z</time>
      </trkpt>
      <trkpt lat="51.631678" lon="7.414715">
        <ele>54.658353</ele>
        <time>2025-08-12T14:24:06.814Z</time>
      </trkpt>
      <trkpt lat="51.631377" lon="7.414187">
        <ele>54.678395</ele>
        <time>2025-08-12T14:24:17.335Z</time>
      </trkpt>
      <trkpt lat="51.631275" lon="7.414132">
        <ele>54.683240</ele>
        <time>2025-08-12T14:24:19.850Z</time>
      </trkpt>
      <trkpt lat="51.631324" lon="7.414422">
        <ele>54.691643</ele>
        <time>2025-08-12T14:24:23.284Z</time>
      </trkpt>
      <trkpt lat="51.631308" lon="7.414898">
        <ele>54.666790</ele>
        <time>2025-08-12T14:24:28.747Z</time>
      </trkpt>
      <trkpt lat="51.631217" lon="7.415077">
        <ele>54.641254</ele>
        <time>2025-08-12T14:24:31.434Z</time>
      </trkpt>
      <trkpt lat="51.631100" lon="7.415196">
        <ele>54.616652</ele>
        <time>2025-08-12T14:24:33.978Z</time>
      </trkpt>
      <trkpt lat="51.630837" lon="7.415231">
        <ele>54.569731</ele>
        <time>2025-08-12T14:24:38.791Z</time>
      </trkpt>
      <trkpt lat="51.630881" lon="7.418471">
        <ele>54.346287</ele>
        <time>2025-08-12T14:25:37.218Z</time>
      </trkpt>
      <trkpt lat="51.630630" lon="7.419362">
        <ele>54.325940</ele>
        <time>2025-08-12T14:25:55.502Z</time>
      </trkpt>
      <trkpt lat="51.630267" lon="7.420521">
        <ele>54.474338</ele>
        <time>2025-08-12T14:26:20.508Z</time>
      </trkpt>
      <trkpt lat="51.628757" lon="7.424669">
        <ele>55.103260</ele>
        <time>2025-08-12T14:27:52.150Z</time>
      </trkpt>
      <trkpt lat="51.627768" lon="7.427336">
        <ele>54.451840</ele>
        <time>2025-08-12T14:28:47.271Z</time>
      </trkpt>
      <trkpt lat="51.627578" lon="7.427857">
        <ele>54.550280</ele>
        <time>2025-08-12T14:28:58.328Z</time>
      </trkpt>
      <trkpt lat="51.627371" lon="7.427728">
        <ele>54.608528</ele>
        <time>2025-08-12T14:29:04.917Z</time>
      </trkpt>
      <trkpt lat="51.627279" lon="7.427762">
        <ele>54.633300</ele>
        <time>2025-08-12T14:29:07.803Z</time>
      </trkpt>
      <trkpt lat="51.627195" lon="7.426919">
        <ele>54.772394</ele>
        <time>2025-08-12T14:29:17.863Z</time>
      </trkpt>
      <trkpt lat="51.627076" lon="7.426681">
        <ele>54.822181</ele>
        <time>2025-08-12T14:29:21.598Z</time>
      </trkpt>
      <trkpt lat="51.626906" lon="7.426508">
        <ele>54.874952</ele>
        <time>2025-08-12T14:29:25.629Z</time>
      </trkpt>
      <trkpt lat="51.626845" lon="7.426433">
        <ele>54.895091</ele>
        <time>2025-08-12T14:29:27.185Z</time>
      </trkpt>
      <trkpt lat="51.626706" lon="7.427430">
        <ele>55.974013</ele>
        <time>2025-08-12T14:29:40.979Z</time>
      </trkpt>
      <trkpt lat="51.626533" lon="7.428100">
        <ele>56.792561</ele>
        <time>2025-08-12T14:29:51.951Z</time>
      </trkpt>
      <trkpt lat="51.626376" lon="7.428327">
        <ele>57.175909</ele>
        <time>2025-08-12T14:29:57.559Z</time>
      </trkpt>
      <trkpt lat="51.626288" lon="7.428385">
        <ele>57.348681</ele>
        <time>2025-08-12T14:30:00.155Z</time>
      </trkpt>
      <trkpt lat="51.626202" lon="7.428421">
        <ele>57.510142</ele>
        <time>2025-08-12T14:30:02.671Z</time>
      </trkpt>
      <trkpt lat="51.625914" lon="7.428426">
        <ele>58.033497</ele>
        <time>2025-08-12T14:30:11.078Z</time>
      </trkpt>
      <trkpt lat="51.625387" lon="7.428432">
        <ele>59.097424</ele>
        <time>2025-08-12T14:30:26.855Z</time>
      </trkpt>
      <trkpt lat="51.625323" lon="7.428431">
        <ele>59.228887</ele>
        <time>2025-08-12T14:30:28.768Z</time>
      </trkpt>
      <trkpt lat="51.624935" lon="7.428428">
        <ele>60.025849</ele>
        <time>2025-08-12T14:30:39.878Z</time>
      </trkpt>
      <trkpt lat="51.624363" lon="7.428415">
        <ele>61.200855</ele>
        <time>2025-08-12T14:30:54.794Z</time>
      </trkpt>
      <trkpt lat="51.623837" lon="7.428266">
        <ele>61.661941</ele>
        <time>2025-08-12T14:31:06.244Z</time>
      </trkpt>
      <trkpt lat="51.623236" lon="7.427917">
        <ele>61.022566</ele>
        <time>2025-08-12T14:31:16.664Z</time>
      </trkpt>
      <trkpt lat="51.623164" lon="7.427889">
        <ele>60.948438</ele>
        <time>2025-08-12T14:31:17.794Z</time>
      </trkpt>
      <trkpt lat="51.622238" lon="7.427761">
        <ele>60.010893</ele>
        <time>2025-08-12T14:31:31.479Z</time>
      </trkpt>
      <trkpt lat="51.621995" lon="7.427716">
        <ele>59.731204</ele>
        <time>2025-08-12T14:31:35.003Z</time>
      </trkpt>
      <trkpt lat="51.621543" lon="7.427602">
        <ele>59.208067</ele>
        <time>2025-08-12T14:31:41.823Z</time>
      </trkpt>
      <trkpt lat="51.621339" lon="7.427551">
        <ele>58.972011</ele>
        <time>2025-08-12T14:31:45.034Z</time>
      </trkpt>
      <trkpt lat="51.621121" lon="7.427464">
        <ele>58.715201</ele>
        <time>2025-08-12T14:31:48.635Z</time>
      </trkpt>
      <trkpt lat="51.621056" lon="7.427259">
        <ele>58.551787</ele>
        <time>2025-08-12T14:31:50.983Z</time>
      </trkpt>
      <trkpt lat="51.621074" lon="7.427017">
        <ele>58.378758</ele>
        <time>2025-08-12T14:31:53.508Z</time>
      </trkpt>
      <trkpt lat="51.621205" lon="7.426644">
        <ele>58.074526</ele>
        <time>2025-08-12T14:31:58.072Z</time>
      </trkpt>
      <trkpt lat="51.621412" lon="7.426020">
        <ele>58.128458</ele>
        <time>2025-08-12T14:32:06.115Z</time>
      </trkpt>
      <trkpt lat="51.621391" lon="7.425839">
        <ele>58.162504</ele>
        <time>2025-08-12T14:32:08.296Z</time>
      </trkpt>
      <trkpt lat="51.621294" lon="7.425659">
        <ele>58.206574</ele>
        <time>2025-08-12T14:32:11.156Z</time>
      </trkpt>
      <trkpt lat="51.620745" lon="7.427217">
        <ele>58.537813</ele>
        <time>2025-08-12T14:32:32.656Z</time>
      </trkpt>
      <trkpt lat="51.620372" lon="7.428226">
        <ele>59.513606</ele>
        <time>2025-08-12T14:32:47.425Z</time>
      </trkpt>
      <trkpt lat="51.620296" lon="7.428158">
        <ele>59.634965</ele>
        <time>2025-08-12T14:32:49.340Z</time>
      </trkpt>
      <trkpt lat="51.620246" lon="7.428113">
        <ele>59.714918</ele>
        <time>2025-08-12T14:32:50.652Z</time>
      </trkpt>
      <trkpt lat="51.620215" lon="7.428178">
        <ele>59.785954</ele>
        <time>2025-08-12T14:32:51.807Z</time>
      </trkpt>
      <trkpt lat="51.620113" lon="7.428208">
        <ele>59.930691</ele>
        <time>2025-08-12T14:32:54.192Z</time>
      </trkpt>
      <trkpt lat="51.620053" lon="7.428272">
        <ele>60.031147</ele>
        <time>2025-08-12T14:32:55.882Z</time>
      </trkpt>
      <trkpt lat="51.620033" lon="7.428330">
        <ele>60.088647</ele>
        <time>2025-08-12T14:32:56.840Z</time>
      </trkpt>
      <trkpt lat="51.619284" lon="7.426115">
        <ele>63.149031</ele>
        <time>2025-08-12T14:33:57.773Z</time>
      </trkpt>
      <trkpt lat="51.618864" lon="7.424947">
        <ele>65.160977</ele>
        <time>2025-08-12T14:34:32.217Z</time>
      </trkpt>
      <trkpt lat="51.618514" lon="7.424107">
        <ele>65.787090</ele>
        <time>2025-08-12T14:34:54.908Z</time>
      </trkpt>
      <trkpt lat="51.618517" lon="7.424396">
        <ele>65.923610</ele>
        <time>2025-08-12T14:35:00.928Z</time>
      </trkpt>
      <trkpt lat="51.618492" lon="7.424571">
        <ele>66.008426</ele>
        <time>2025-08-12T14:35:04.599Z</time>
      </trkpt>
      <trkpt lat="51.618425" lon="7.424732">
        <ele>66.099970</ele>
        <time>2025-08-12T14:35:08.468Z</time>
      </trkpt>
      <trkpt lat="51.618218" lon="7.425004">
        <ele>66.303197</ele>
        <time>2025-08-12T14:35:16.797Z</time>
      </trkpt>
      <trkpt lat="51.617863" lon="7.425338">
        <ele>66.615952</ele>
        <time>2025-08-12T14:35:28.849Z</time>
      </trkpt>
      <trkpt lat="51.617710" lon="7.425427">
        <ele>66.739700</ele>
        <time>2025-08-12T14:35:33.455Z</time>
      </trkpt>
      <trkpt lat="51.617598" lon="7.425419">
        <ele>66.743798</ele>
        <time>2025-08-12T14:35:36.671Z</time>
      </trkpt>
      <trkpt lat="51.617381" lon="7.425010">
        <ele>66.735640</ele>
        <time>2025-08-12T14:35:46.294Z</time>
      </trkpt>
      <trkpt lat="51.616813" lon="7.423565">
        <ele>66.709709</ele>
        <time>2025-08-12T14:36:17.615Z</time>
      </trkpt>
      <trkpt lat="51.616149" lon="7.421875">
        <ele>67.437763</ele>
        <time>2025-08-12T14:36:56.635Z</time>
      </trkpt>
      <trkpt lat="51.615424" lon="7.420017">
        <ele>68.567937</ele>
        <time>2025-08-12T14:37:30.147Z</time>
      </trkpt>
      <trkpt lat="51.615395" lon="7.419755">
        <ele>68.718746</ele>
        <time>2025-08-12T14:37:34.142Z</time>
      </trkpt>
      <trkpt lat="51.615389" lon="7.419319">
        <ele>68.965878</ele>
        <time>2025-08-12T14:37:40.628Z</time>
      </trkpt>
      <trkpt lat="51.615413" lon="7.418815">
        <ele>69.252321</ele>
        <time>2025-08-12T14:37:47.929Z</time>
      </trkpt>
      <trkpt lat="51.615491" lon="7.418545">
        <ele>69.421072</ele>
        <time>2025-08-12T14:37:52.145Z</time>
      </trkpt>
      <trkpt lat="51.615670" lon="7.418212">
        <ele>69.670660</ele>
        <time>2025-08-12T14:37:58.232Z</time>
      </trkpt>
      <trkpt lat="51.615947" lon="7.417946">
        <ele>69.769902</ele>
        <time>2025-08-12T14:38:05.286Z</time>
      </trkpt>
      <trkpt lat="51.616046" lon="7.417907">
        <ele>69.779586</ele>
        <time>2025-08-12T14:38:07.498Z</time>
      </trkpt>
      <trkpt lat="51.615997" lon="7.417692">
        <ele>69.793099</ele>
        <time>2025-08-12T14:38:10.592Z</time>
      </trkpt>
      <trkpt lat="51.615848" lon="7.417398">
        <ele>69.815489</ele>
        <time>2025-08-12T14:38:15.487Z</time>
      </trkpt>
      <trkpt lat="51.615755" lon="7.417290">
        <ele>69.826383</ele>
        <time>2025-08-12T14:38:17.719Z</time>
      </trkpt>
      <trkpt lat="51.615697" lon="7.417032">
        <ele>69.842572</ele>
        <time>2025-08-12T14:38:20.951Z</time>
      </trkpt>
      <trkpt lat="51.615354" lon="7.416226">
        <ele>69.900223</ele>
        <time>2025-08-12T14:38:32.104Z</time>
      </trkpt>
      <trkpt lat="51.615582" lon="7.415403">
        <ele>70.560662</ele>
        <time>2025-08-12T14:38:43.031Z</time>
      </trkpt>
      <trkpt lat="51.615652" lon="7.415062">
        <ele>70.946807</ele>
        <time>2025-08-12T14:38:47.988Z</time>
      </trkpt>
      <trkpt lat="51.615192" lon="7.415162">
        <ele>71.750528</ele>
        <time>2025-08-12T14:39:00.458Z</time>
      </trkpt>
      <trkpt lat="51.614746" lon="7.415259">
        <ele>72.529796</ele>
        <time>2025-08-12T14:39:14.606Z</time>
      </trkpt>
      <trkpt lat="51.614479" lon="7.415214">
        <ele>72.994636</ele>
        <time>2025-08-12T14:39:23.448Z</time>
      </trkpt>
      <trkpt lat="51.613898" lon="7.414454">
        <ele>74.654815</ele>
        <time>2025-08-12T14:39:45.731Z</time>
      </trkpt>
      <trkpt lat="51.613725" lon="7.414280">
        <ele>75.110198</ele>
        <time>2025-08-12T14:39:51.335Z</time>
      </trkpt>
      <trkpt lat="51.613275" lon="7.414110">
        <ele>76.142147</ele>
        <time>2025-08-12T14:40:04.041Z</time>
      </trkpt>
      <trkpt lat="51.613070" lon="7.414143">
        <ele>76.602113</ele>
        <time>2025-08-12T14:40:09.777Z</time>
      </trkpt>
      <trkpt lat="51.612880" lon="7.414052">
        <ele>77.044673</ele>
        <time>2025-08-12T14:40:15.179Z</time>
      </trkpt>
      <trkpt lat="51.612718" lon="7.414045">
        <ele>77.263776</ele>
        <time>2025-08-12T14:40:19.400Z</time>
      </trkpt>
      <trkpt lat="51.612061" lon="7.414107">
        <ele>78.147883</ele>
        <time>2025-08-12T14:40:37.584Z</time>
      </trkpt>
      <trkpt lat="51.611940" lon="7.414143">
        <ele>78.313181</ele>
        <time>2025-08-12T14:40:40.872Z</time>
      </trkpt>
      <trkpt lat="51.611822" lon="7.414172">
        <ele>78.473534</ele>
        <time>2025-08-12T14:40:43.980Z</time>
      </trkpt>
      <trkpt lat="51.611522" lon="7.413980">
        <ele>78.907205</ele>
        <time>2025-08-12T14:40:51.855Z</time>
      </trkpt>
      <trkpt lat="51.611249" lon="7.413921">
        <ele>79.277233</ele>
        <time>2025-08-12T14:40:57.972Z</time>
      </trkpt>
      <trkpt lat="51.610869" lon="7.413690">
        <ele>79.640828</ele>
        <time>2025-08-12T14:41:06.167Z</time>
      </trkpt>
      <trkpt lat="51.610738" lon="7.413497">
        <ele>79.758211</ele>
        <time>2025-08-12T14:41:09.673Z</time>
      </trkpt>
      <trkpt lat="51.610111" lon="7.413204">
        <ele>80.189828</ele>
        <time>2025-08-12T14:41:23.513Z</time>
      </trkpt>
      <trkpt lat="51.609074" lon="7.412982">
        <ele>81.046632</ele>
        <time>2025-08-12T14:41:48.853Z</time>
      </trkpt>
      <trkpt lat="51.609071" lon="7.412920">
        <ele>81.090671</ele>
        <time>2025-08-12T14:41:49.859Z</time>
      </trkpt>
      <trkpt lat="51.608948" lon="7.410946">
        <ele>82.495615</ele>
        <time>2025-08-12T14:42:21.408Z</time>
      </trkpt>
      <trkpt lat="51.608868" lon="7.409657">
        <ele>82.276453</ele>
        <time>2025-08-12T14:42:37.835Z</time>
      </trkpt>
      <trkpt lat="51.608756" lon="7.407867">
        <ele>81.506546</ele>
        <time>2025-08-12T14:42:57.482Z</time>
      </trkpt>
      <trkpt lat="51.608713" lon="7.407727">
        <ele>81.418576</ele>
        <time>2025-08-12T14:42:59.083Z</time>
      </trkpt>
      <trkpt lat="51.608426" lon="7.408143">
        <ele>80.931221</ele>
        <time>2025-08-12T14:43:04.817Z</time>
      </trkpt>
      <trkpt lat="51.608400" lon="7.408068">
        <ele>80.863898</ele>
        <time>2025-08-12T14:43:05.611Z</time>
      </trkpt>
      <trkpt lat="51.608341" lon="7.408067">
        <ele>80.789431</ele>
        <time>2025-08-12T14:43:06.493Z</time>
      </trkpt>
      <trkpt lat="51.608298" lon="7.408024">
        <ele>80.725547</ele>
        <time>2025-08-12T14:43:07.271Z</time>
      </trkpt>
      <trkpt lat="51.608276" lon="7.407949">
        <ele>80.660535</ele>
        <time>2025-08-12T14:43:08.050Z</time>
      </trkpt>
      <trkpt lat="51.608116" lon="7.406860">
        <ele>79.783417</ele>
        <time>2025-08-12T14:43:18.989Z</time>
      </trkpt>
      <trkpt lat="51.608006" lon="7.405637">
        <ele>78.837283</ele>
        <time>2025-08-12T14:43:31.148Z</time>
      </trkpt>
      <trkpt lat="51.607817" lon="7.402604">
        <ele>76.674897</ele>
        <time>2025-08-12T14:44:00.695Z</time>
      </trkpt>
      <trkpt lat="51.607734" lon="7.402107">
        <ele>76.364578</ele>
        <time>2025-08-12T14:44:05.605Z</time>
      </trkpt>
      <trkpt lat="51.607564" lon="7.401385">
        <ele>75.898998</ele>
        <time>2025-08-12T14:44:13.066Z</time>
      </trkpt>
      <trkpt lat="51.606870" lon="7.398830">
        <ele>75.232783</ele>
        <time>2025-08-12T14:44:42.498Z</time>
      </trkpt>
      <trkpt lat="51.606643" lon="7.398065">
        <ele>75.195433</ele>
        <time>2025-08-12T14:44:52.763Z</time>
      </trkpt>
      <trkpt lat="51.606398" lon="7.397163">
        <ele>75.269778</ele>
        <time>2025-08-12T14:45:08.170Z</time>
      </trkpt>
      <trkpt lat="51.606380" lon="7.397095">
        <ele>75.278081</ele>
        <time>2025-08-12T14:45:09.068Z</time>
      </trkpt>
      <trkpt lat="51.606086" lon="7.396077">
        <ele>75.404198</ele>
        <time>2025-08-12T14:45:22.245Z</time>
      </trkpt>
      <trkpt lat="51.605783" lon="7.395039">
        <ele>75.469534</ele>
        <time>2025-08-12T14:45:34.706Z</time>
      </trkpt>
      <trkpt lat="51.605414" lon="7.393741">
        <ele>75.177014</ele>
        <time>2025-08-12T14:45:50.195Z</time>
      </trkpt>
      <trkpt lat="51.605185" lon="7.393056">
        <ele>75.017603</ele>
        <time>2025-08-12T14:45:58.425Z</time>
      </trkpt>
      <trkpt lat="51.605186" lon="7.392861">
        <ele>74.977643</ele>
        <time>2025-08-12T14:46:00.453Z</time>
      </trkpt>
      <trkpt lat="51.605260" lon="7.392787">
        <ele>74.948902</ele>
        <time>2025-08-12T14:46:01.901Z</time>
      </trkpt>
      <trkpt lat="51.605268" lon="7.392693">
        <ele>74.929460</ele>
        <time>2025-08-12T14:46:02.861Z</time>
      </trkpt>
      <trkpt lat="51.605269" lon="7.392586">
        <ele>74.867386</ele>
        <time>2025-08-12T14:46:03.941Z</time>
      </trkpt>
      <trkpt lat="51.605196" lon="7.392549">
        <ele>74.736323</ele>
        <time>2025-08-12T14:46:05.170Z</time>
      </trkpt>
      <trkpt lat="51.605159" lon="7.392421">
        <ele>74.586156</ele>
        <time>2025-08-12T14:46:06.584Z</time>
      </trkpt>
      <trkpt lat="51.605083" lon="7.391741">
        <ele>73.851276</ele>
        <time>2025-08-12T14:46:13.273Z</time>
      </trkpt>
      <trkpt lat="51.605083" lon="7.391267">
        <ele>73.347119</ele>
        <time>2025-08-12T14:46:17.719Z</time>
      </trkpt>
      <trkpt lat="51.604905" lon="7.388946">
        <ele>70.759396</ele>
        <time>2025-08-12T14:46:38.564Z</time>
      </trkpt>
      <trkpt lat="51.604889" lon="7.388895">
        <ele>70.692386</ele>
        <time>2025-08-12T14:46:39.074Z</time>
      </trkpt>
      <trkpt lat="51.604808" lon="7.388909">
        <ele>70.538553</ele>
        <time>2025-08-12T14:46:40.245Z</time>
      </trkpt>
      <trkpt lat="51.604750" lon="7.388920">
        <ele>70.428272</ele>
        <time>2025-08-12T14:46:41.397Z</time>
      </trkpt>
      <trkpt lat="51.604725" lon="7.388690">
        <ele>70.154427</ele>
        <time>2025-08-12T14:46:44.268Z</time>
      </trkpt>
      <trkpt lat="51.604694" lon="7.388692">
        <ele>70.095842</ele>
        <time>2025-08-12T14:46:44.892Z</time>
      </trkpt>
      <trkpt lat="51.604675" lon="7.388484">
        <ele>69.849274</ele>
        <time>2025-08-12T14:46:46.809Z</time>
      </trkpt>
      <trkpt lat="51.604543" lon="7.387776">
        <ele>68.982319</ele>
        <time>2025-08-12T14:46:53.653Z</time>
      </trkpt>
      <trkpt lat="51.604143" lon="7.385970">
        <ele>68.032524</ele>
        <time>2025-08-12T14:47:12.669Z</time>
      </trkpt>
      <trkpt lat="51.604115" lon="7.385921">
        <ele>68.013862</ele>
        <time>2025-08-12T14:47:13.374Z</time>
      </trkpt>
      <trkpt lat="51.604022" lon="7.385389">
        <ele>67.858958</ele>
        <time>2025-08-12T14:47:23.401Z</time>
      </trkpt>
      <trkpt lat="51.603896" lon="7.384943">
        <ele>67.721627</ele>
        <time>2025-08-12T14:47:32.558Z</time>
      </trkpt>
      <trkpt lat="51.603895" lon="7.384719">
        <ele>67.658842</ele>
        <time>2025-08-12T14:47:36.879Z</time>
      </trkpt>
      <trkpt lat="51.603956" lon="7.384137">
        <ele>67.758308</ele>
        <time>2025-08-12T14:47:48.600Z</time>
      </trkpt>
      <trkpt lat="51.604464" lon="7.384212">
        <ele>67.978671</ele>
        <time>2025-08-12T14:48:04.941Z</time>
      </trkpt>
      <trkpt lat="51.604554" lon="7.384271">
        <ele>68.020648</ele>
        <time>2025-08-12T14:48:08.017Z</time>
      </trkpt>
      <trkpt lat="51.604672" lon="7.384271">
        <ele>68.071621</ele>
        <time>2025-08-12T14:48:11.767Z</time>
      </trkpt>
      <trkpt lat="51.604794" lon="7.384213">
        <ele>68.126571</ele>
        <time>2025-08-12T14:48:15.813Z</time>
      </trkpt>
      <trkpt lat="51.604906" lon="7.384237">
        <ele>68.175378</ele>
        <time>2025-08-12T14:48:19.392Z</time>
      </trkpt>
      <trkpt lat="51.605362" lon="7.384377">
        <ele>68.375908</ele>
        <time>2025-08-12T14:48:33.942Z</time>
      </trkpt>
      <trkpt lat="51.605442" lon="7.384402">
        <ele>68.407000</ele>
        <time>2025-08-12T14:48:36.429Z</time>
      </trkpt>
      <trkpt lat="51.607090" lon="7.384673">
        <ele>68.576964</ele>
        <time>2025-08-12T14:49:25.555Z</time>
      </trkpt>
      <trkpt lat="51.607264" lon="7.384671">
        <ele>68.591452</ele>
        <time>2025-08-12T14:49:30.914Z</time>
      </trkpt>
      <trkpt lat="51.607453" lon="7.384669">
        <ele>68.596523</ele>
        <time>2025-08-12T14:49:36.758Z</time>
      </trkpt>
      <trkpt lat="51.607918" lon="7.384573">
        <ele>68.609100</ele>
        <time>2025-08-12T14:49:51.329Z</time>
      </trkpt>
      <trkpt lat="51.608736" lon="7.384281">
        <ele>68.631578</ele>
        <time>2025-08-12T14:50:16.205Z</time>
      </trkpt>
      <trkpt lat="51.608960" lon="7.384150">
        <ele>68.637971</ele>
        <time>2025-08-12T14:50:23.101Z</time>
      </trkpt>
      <trkpt lat="51.609378" lon="7.383740">
        <ele>68.413712</ele>
        <time>2025-08-12T14:50:37.213Z</time>
      </trkpt>
      <trkpt lat="51.609733" lon="7.383635">
        <ele>68.240779</ele>
        <time>2025-08-12T14:50:47.475Z</time>
      </trkpt>
      <trkpt lat="51.610300" lon="7.383629">
        <ele>67.969112</ele>
        <time>2025-08-12T14:51:03.447Z</time>
      </trkpt>
      <trkpt lat="51.610400" lon="7.383529">
        <ele>67.912713</ele>
        <time>2025-08-12T14:51:06.800Z</time>
      </trkpt>
      <trkpt lat="51.610898" lon="7.382357">
        <ele>67.631695</ele>
        <time>2025-08-12T14:51:32.223Z</time>
      </trkpt>
      <trkpt lat="51.611270" lon="7.381325">
        <ele>67.451983</ele>
        <time>2025-08-12T14:51:53.590Z</time>
      </trkpt>
      <trkpt lat="51.612029" lon="7.378393">
        <ele>67.339489</ele>
        <time>2025-08-12T14:52:52.527Z</time>
      </trkpt>
      <trkpt lat="51.613668" lon="7.372119">
        <ele>66.974138</ele>
        <time>2025-08-12T14:54:56.538Z</time>
      </trkpt>
      <trkpt lat="51.613957" lon="7.370862">
        <ele>67.198143</ele>
        <time>2025-08-12T14:55:22.090Z</time>
      </trkpt>
      <trkpt lat="51.614080" lon="7.369940">
        <ele>67.355742</ele>
        <time>2025-08-12T14:55:40.753Z</time>
      </trkpt>
      <trkpt lat="51.614120" lon="7.369136">
        <ele>67.509539</ele>
        <time>2025-08-12T14:55:56.513Z</time>
      </trkpt>
      <trkpt lat="51.614117" lon="7.368336">
        <ele>67.663583</ele>
        <time>2025-08-12T14:56:12.016Z</time>
      </trkpt>
      <trkpt lat="51.614143" lon="7.368103">
        <ele>67.709166</ele>
        <time>2025-08-12T14:56:16.588Z</time>
      </trkpt>
      <trkpt lat="51.614353" lon="7.358052">
        <ele>68.887771</ele>
        <time>2025-08-12T14:59:25.881Z</time>
      </trkpt>
      <trkpt lat="51.614402" lon="7.355705">
        <ele>69.086691</ele>
        <time>2025-08-12T15:00:09.884Z</time>
      </trkpt>
      <trkpt lat="51.614579" lon="7.352356">
        <ele>69.288367</ele>
        <time>2025-08-12T15:01:12.698Z</time>
      </trkpt>
      <trkpt lat="51.614617" lon="7.352137">
        <ele>69.280393</ele>
        <time>2025-08-12T15:01:16.967Z</time>
      </trkpt>
      <trkpt lat="51.614702" lon="7.351379">
        <ele>69.253381</ele>
        <time>2025-08-12T15:01:28.343Z</time>
      </trkpt>
      <trkpt lat="51.614826" lon="7.349007">
        <ele>69.135132</ele>
        <time>2025-08-12T15:02:02.424Z</time>
      </trkpt>
      <trkpt lat="51.614792" lon="7.348681">
        <ele>69.105907</ele>
        <time>2025-08-12T15:02:07.096Z</time>
      </trkpt>
      <trkpt lat="51.614987" lon="7.345179">
        <ele>68.825435</ele>
        <time>2025-08-12T15:02:57.567Z</time>
      </trkpt>
      <trkpt lat="51.615137" lon="7.344380">
        <ele>68.767466</ele>
        <time>2025-08-12T15:03:09.790Z</time>
      </trkpt>
      <trkpt lat="51.615133" lon="7.344107">
        <ele>68.748502</ele>
        <time>2025-08-12T15:03:13.717Z</time>
      </trkpt>
      <trkpt lat="51.615184" lon="7.343786">
        <ele>68.704902</ele>
        <time>2025-08-12T15:03:18.448Z</time>
      </trkpt>
      <trkpt lat="51.615174" lon="7.343501">
        <ele>68.644387</ele>
        <time>2025-08-12T15:03:22.491Z</time>
      </trkpt>
      <trkpt lat="51.615224" lon="7.343189">
        <ele>68.576078</ele>
        <time>2025-08-12T15:03:27.048Z</time>
      </trkpt>
      <trkpt lat="51.615230" lon="7.342809">
        <ele>68.495494</ele>
        <time>2025-08-12T15:03:32.381Z</time>
      </trkpt>
      <trkpt lat="51.615268" lon="7.342607">
        <ele>68.450749</ele>
        <time>2025-08-12T15:03:35.328Z</time>
      </trkpt>
      <trkpt lat="51.615254" lon="7.342423">
        <ele>68.411450</ele>
        <time>2025-08-12T15:03:37.911Z</time>
      </trkpt>
      <trkpt lat="51.615312" lon="7.342030">
        <ele>68.325816</ele>
        <time>2025-08-12T15:03:43.509Z</time>
      </trkpt>
      <trkpt lat="51.615307" lon="7.341894">
        <ele>68.296934</ele>
        <time>2025-08-12T15:03:45.378Z</time>
      </trkpt>
      <trkpt lat="51.615886" lon="7.339838">
        <ele>67.921187</ele>
        <time>2025-08-12T15:04:17.037Z</time>
      </trkpt>
      <trkpt lat="51.617279" lon="7.337176">
        <ele>67.489544</ele>
        <time>2025-08-12T15:05:07.243Z</time>
      </trkpt>
      <trkpt lat="51.618039" lon="7.335740">
        <ele>66.792805</ele>
        <time>2025-08-12T15:05:33.772Z</time>
      </trkpt>
      <trkpt lat="51.618298" lon="7.335250">
        <ele>66.409925</ele>
        <time>2025-08-12T15:05:42.240Z</time>
      </trkpt>
      <trkpt lat="51.618343" lon="7.335323">
        <ele>66.348721</ele>
        <time>2025-08-12T15:05:43.581Z</time>
      </trkpt>
      <trkpt lat="51.618420" lon="7.334900">
        <ele>66.086448</ele>
        <time>2025-08-12T15:05:49.302Z</time>
      </trkpt>
      <trkpt lat="51.618508" lon="7.334609">
        <ele>65.893864</ele>
        <time>2025-08-12T15:05:53.436Z</time>
      </trkpt>
      <trkpt lat="51.618560" lon="7.334661">
        <ele>65.835210</ele>
        <time>2025-08-12T15:05:54.744Z</time>
      </trkpt>
      <trkpt lat="51.618789" lon="7.334641">
        <ele>65.587090</ele>
        <time>2025-08-12T15:06:22.986Z</time>
      </trkpt>
      <trkpt lat="51.618760" lon="7.334848">
        <ele>65.391234</ele>
        <time>2025-08-12T15:06:25.028Z</time>
      </trkpt>
      <trkpt lat="51.618769" lon="7.335092">
        <ele>65.165634</ele>
        <time>2025-08-12T15:06:27.341Z</time>
      </trkpt>
      <trkpt lat="51.618815" lon="7.335275">
        <ele>64.983416</ele>
        <time>2025-08-12T15:06:29.221Z</time>
      </trkpt>
      <trkpt lat="51.618965" lon="7.335484">
        <ele>64.688579</ele>
        <time>2025-08-12T15:06:32.220Z</time>
      </trkpt>
      <trkpt lat="51.619280" lon="7.335880">
        <ele>64.094574</ele>
        <time>2025-08-12T15:06:38.392Z</time>
      </trkpt>
      <trkpt lat="51.619420" lon="7.335537">
        <ele>63.715723</ele>
        <time>2025-08-12T15:06:42.347Z</time>
      </trkpt>
      <trkpt lat="51.619490" lon="7.335287">
        <ele>63.462608</ele>
        <time>2025-08-12T15:06:44.895Z</time>
      </trkpt>
      <trkpt lat="51.619576" lon="7.334821">
        <ele>63.013918</ele>
        <time>2025-08-12T15:06:49.293Z</time>
      </trkpt>
      <trkpt lat="51.619593" lon="7.334575">
        <ele>62.949449</ele>
        <time>2025-08-12T15:06:51.546Z</time>
      </trkpt>
      <trkpt lat="51.619662" lon="7.334598">
        <ele>62.927397</ele>
        <time>2025-08-12T15:06:52.635Z</time>
      </trkpt>
      <trkpt lat="51.619619" lon="7.333909">
        <ele>62.792845</ele>
        <time>2025-08-12T15:06:59.399Z</time>
      </trkpt>
      <trkpt lat="51.619553" lon="7.333583">
        <ele>62.726218</ele>
        <time>2025-08-12T15:07:02.878Z</time>
      </trkpt>
      <trkpt lat="51.619450" lon="7.333287">
        <ele>62.660286</ele>
        <time>2025-08-12T15:07:06.474Z</time>
      </trkpt>
      <trkpt lat="51.619395" lon="7.333099">
        <ele>62.619904</ele>
        <time>2025-08-12T15:07:08.881Z</time>
      </trkpt>
      <trkpt lat="51.619213" lon="7.332508">
        <ele>62.491718</ele>
        <time>2025-08-12T15:07:16.944Z</time>
      </trkpt>
      <trkpt lat="51.619080" lon="7.331996">
        <ele>62.430283</ele>
        <time>2025-08-12T15:07:24.029Z</time>
      </trkpt>
      <trkpt lat="51.618960" lon="7.331561">
        <ele>62.430283</ele>
        <time>2025-08-12T15:07:31.739Z</time>
      </trkpt>
      <trkpt lat="51.618863" lon="7.331254">
        <ele>62.430283</ele>
        <time>2025-08-12T15:07:37.677Z</time>
      </trkpt>
      <trkpt lat="51.618714" lon="7.330890">
        <ele>62.430283</ele>
        <time>2025-08-12T15:07:44.446Z</time>
      </trkpt>
      <trkpt lat="51.618599" lon="7.330689">
        <ele>62.430283</ele>
        <time>2025-08-12T15:07:48.314Z</time>
      </trkpt>
      <trkpt lat="51.618554" lon="7.330811">
        <ele>62.430283</ele>
        <time>2025-08-12T15:07:50.443Z</time>
      </trkpt>
      <trkpt lat="51.618502" lon="7.330926">
        <ele>62.430283</ele>
        <time>2025-08-12T15:07:52.435Z</time>
      </trkpt>
      <trkpt lat="51.618451" lon="7.331019">
        <ele>62.430283</ele>
        <time>2025-08-12T15:07:54.259Z</time>
      </trkpt>
      <trkpt lat="51.618299" lon="7.331295">
        <ele>62.430283</ele>
        <time>2025-08-12T15:07:59.072Z</time>
      </trkpt>
      <trkpt lat="51.618194" lon="7.331498">
        <ele>62.430283</ele>
        <time>2025-08-12T15:08:02.347Z</time>
      </trkpt>
    </trkseg>
  </trk>
</gpx>